EW4118 Weather Reports


Display with metric or nautical units.
time (UTC)temp
F
wind
direction
speed
MPH
gust
MPH
rain 1hr
in
rain 24hr
in
rain mn
in
humidity
%
barometer
mb
20190324111521 40 284 0.0 2.0 0.03 0.06 0.06 95 1021.3
20190324111508 40 284 0.0 3.0 0.03 0.06 0.06 95 1019.8
20190324111407 40 284 0.0 3.0 0.02 0.05 0.05 95 1019.8
20190324111308 40 284 0.0 3.0 0.02 0.05 0.05 95 1019.9
20190324111208 40 276 0.0 4.0 0.03 0.05 0.05 95 1019.9
20190324111108 40 276 0.0 4.0 0.03 0.05 0.05 95 1019.9
20190324111008 40 276 0.0 4.0 0.03 0.05 0.05 94 1019.9
20190324110908 40 275 0.0 4.0 0.03 0.05 0.05 94 1019.9
20190324110808 40 275 0.0 4.0 0.03 0.05 0.05 94 1019.9
20190324110708 40 275 0.0 4.0 0.03 0.05 0.05 94 1019.9
20190324110611 40 275 0.0 4.0 0.03 0.05 0.05 94 1019.9
20190324110508 40 275 0.0 4.0 0.03 0.05 0.05 94 1020.0
20190324110407 40 275 0.0 4.0 0.03 0.05 0.05 94 1020.0
20190324110308 40 275 0.0 4.0 0.03 0.05 0.05 94 1020.0
20190324110208 40 0 0.0 0.0 0.04 0.05 0.05 94 1020.0
20190324110108 40 0 0.0 0.0 0.04 0.05 0.05 94 1020.0
20190324110008 40 0 0.0 0.0 0.04 0.05 0.05 94 1020.0
20190324105907 40 0 0.0 0.0 0.03 0.04 0.04 94 1020.0
20190324105809 40 0 0.0 0.0 0.03 0.04 0.04 94 1020.0
20190324105708 40 0 0.0 0.0 0.03 0.04 0.04 94 1020.1
20190324105609 40 0 0.0 0.0 0.03 0.04 0.04 94 1020.0
20190324105508 40 0 0.0 0.0 0.03 0.04 0.04 94 1020.1
20190324105408 40 0 0.0 0.0 0.03 0.04 0.04 94 1020.1
20190324105308 40 0 0.0 0.0 0.03 0.04 0.04 94 1020.1
20190324105208 40 0 0.0 0.0 0.03 0.04 0.04 94 1020.1
20190324105111 40 0 0.0 0.0 0.03 0.04 0.04 94 1020.1
20190324105008 40 0 0.0 0.0 0.03 0.04 0.04 94 1020.1
20190324104908 40 0 0.0 0.0 0.03 0.04 0.04 94 1020.1
20190324104808 40 0 0.0 0.0 0.03 0.04 0.04 94 1020.1
20190324104708 40 0 0.0 0.0 0.03 0.04 0.04 94 1020.1
20190324104608 40 0 0.0 0.0 0.03 0.04 0.04 94 1020.1
20190324104531 39 167 0.0 0.0 0.03 0.04 0.04 94 1021.6
20190324104508 39 0 0.0 0.0 0.03 0.04 0.04 94 1020.2
20190324104408 39 0 0.0 0.0 0.03 0.04 0.04 94 1020.2
20190324104308 39 0 0.0 0.0 0.03 0.04 0.04 94 1020.2
20190324104208 39 0 0.0 0.0 0.04 0.04 0.04 94 1020.2
20190324104107 39 0 0.0 0.0 0.04 0.04 0.04 94 1020.2
20190324104008 39 0 0.0 0.0 0.04 0.04 0.04 94 1020.2
20190324103908 39 0 0.0 0.0 0.04 0.04 0.04 94 1020.2
20190324103808 39 0 0.0 0.0 0.04 0.04 0.04 94 1020.2
20190324103709 39 0 0.0 0.0 0.04 0.04 0.04 94 1020.3
20190324103611 39 0 0.0 0.0 0.04 0.04 0.04 94 1020.3
20190324103508 39 0 0.0 0.0 0.04 0.04 0.04 94 1020.3
20190324103408 39 0 0.0 0.0 0.04 0.04 0.04 94 1020.3
20190324103307 39 0 0.0 0.0 0.04 0.04 0.04 94 1020.3
20190324103208 39 0 0.0 0.0 0.04 0.04 0.04 94 1020.3
20190324103108 39 0 0.0 0.0 0.04 0.04 0.04 93 1020.4
20190324103008 39 0 0.0 0.0 0.04 0.04 0.04 93 1020.4
20190324102908 39 0 0.0 0.0 0.04 0.04 0.04 93 1020.4
20190324102808 39 0 0.0 0.0 0.04 0.04 0.04 93 1020.4
20190324102708 39 0 0.0 0.0 0.03 0.03 0.03 93 1020.4
20190324102608 39 0 0.0 0.0 0.03 0.03 0.03 93 1020.4
20190324102508 39 0 0.0 0.0 0.03 0.03 0.03 93 1020.4
20190324102408 39 0 0.0 0.0 0.03 0.03 0.03 93 1020.5
20190324102308 39 0 0.0 0.0 0.03 0.03 0.03 93 1020.5
20190324102208 39 0 0.0 0.0 0.03 0.03 0.03 92 1020.5
20190324102111 39 0 0.0 0.0 0.03 0.03 0.03 92 1020.5
20190324102008 39 0 0.0 0.0 0.03 0.03 0.03 92 1020.5
20190324101908 38 0 0.0 0.0 0.03 0.03 0.03 92 1020.5
20190324101808 38 0 0.0 0.0 0.03 0.03 0.03 92 1020.5
20190324101707 38 0 0.0 0.0 0.03 0.03 0.03 92 1020.5
20190324101608 39 0 0.0 0.0 0.03 0.03 0.03 92 1020.5
20190324101532 38 166 0.0 0.0 0.03 0.03 0.03 92 1021.9
20190324101508 38 0 0.0 0.0 0.03 0.03 0.03 92 1020.5
20190324101408 38 0 0.0 0.0 0.03 0.03 0.03 92 1020.5
20190324101308 38 0 0.0 0.0 0.02 0.02 0.02 92 1020.5
20190324101208 38 0 0.0 0.0 0.02 0.02 0.02 92 1020.5
20190324101108 38 0 0.0 0.0 0.02 0.02 0.02 92 1020.5
20190324101008 38 0 0.0 0.0 0.02 0.02 0.02 92 1020.5
20190324100908 38 0 0.0 0.0 0.02 0.02 0.02 91 1020.5
20190324100808 38 0 0.0 0.0 0.02 0.02 0.02 91 1020.5
20190324100708 38 0 0.0 0.0 0.02 0.02 0.02 91 1020.5
20190324100611 38 0 0.0 0.0 0.02 0.02 0.02 91 1020.5
20190324100508 38 0 0.0 0.0 0.02 0.02 0.02 91 1020.5
20190324100408 38 0 0.0 0.0 0.02 0.02 0.02 91 1020.5
20190324100307 38 0 0.0 0.0 0.02 0.02 0.02 91 1020.5
20190324100208 38 0 0.0 0.0 0.01 0.01 0.01 91 1020.5
20190324100108 38 0 0.0 0.0 0.01 0.01 0.01 91 1020.5
20190324100008 38 0 0.0 0.0 0.01 0.01 0.01 91 1020.4
20190324095908 38 0 0.0 0.0 0.01 0.01 0.01 91 1020.4
20190324095807 38 0 0.0 0.0 0.01 0.01 0.01 91 1020.4
20190324095708 38 0 0.0 0.0 0.01 0.01 0.01 91 1020.4
20190324095608 38 0 0.0 0.0 0.01 0.01 0.01 91 1020.4
20190324095508 38 0 0.0 0.0 0.01 0.01 0.01 91 1020.4
20190324095408 38 0 0.0 0.0 0.01 0.01 0.01 90 1020.4
20190324095307 38 0 0.0 0.0 0.01 0.01 0.01 89 1020.4
20190324095208 38 0 0.0 0.0 0.01 0.01 0.01 89 1020.4
20190324095111 38 0 0.0 0.0 0.01 0.01 0.01 89 1020.4
20190324095008 38 0 0.0 0.0 0.01 0.01 0.01 89 1020.4
20190324094908 38 0 0.0 0.0 0.01 0.01 0.01 89 1020.4
20190324094808 38 0 0.0 0.0 0.01 0.01 0.01 89 1020.4
20190324094708 38 0 0.0 0.0 0.01 0.01 0.01 89 1020.4
20190324094608 38 0 0.0 0.0 0.01 0.01 0.01 89 1020.4
20190324094520 37 166 0.0 0.0 0.01 0.01 0.01 89 1021.9
20190324094508 38 0 0.0 0.0 0.01 0.01 0.01 89 1020.4
20190324094407 38 0 0.0 0.0 0.01 0.01 0.01 89 1020.4
20190324094307 38 0 0.0 0.0 0.00 0.00 0.00 89 1020.4
20190324094208 38 0 0.0 0.0 0.00 0.00 0.00 88 1020.4
20190324094108 38 0 0.0 0.0 0.00 0.00 0.00 88 1020.4
20190324094008 38 0 0.0 0.0 0.00 0.00 0.00 88 1020.4
20190324093908 38 0 0.0 0.0 0.00 0.00 0.00 87 1020.4
20190324093808 38 0 0.0 0.0 0.00 0.00 0.00 87 1020.4
20190324093708 38 0 0.0 0.0 0.00 0.00 0.00 87 1020.4
20190324093611 38 0 0.0 0.0 0.00 0.00 0.00 87 1020.4
20190324093508 38 0 0.0 0.0 0.00 0.00 0.00 87 1020.4
20190324093408 38 0 0.0 0.0 0.00 0.00 0.00 87 1020.4
20190324093308 38 0 0.0 0.0 0.00 0.00 0.00 86 1020.4
20190324093208 38 0 0.0 0.0 0.00 0.00 0.00 86 1020.4
20190324093107 38 0 0.0 0.0 0.00 0.00 0.00 86 1020.4
20190324093007 38 0 0.0 0.0 0.00 0.00 0.00 86 1020.4
20190324092908 38 0 0.0 0.0 0.00 0.00 0.00 86 1020.4
20190324092808 38 0 0.0 0.0 0.00 0.00 0.00 86 1020.4
20190324092708 38 0 0.0 0.0 0.00 0.00 0.00 86 1020.4
20190324092608 38 0 0.0 0.0 0.00 0.00 0.00 86 1020.4
20190324092507 38 0 0.0 0.0 0.00 0.00 0.00 86 1020.4
20190324092408 37 0 0.0 0.0 0.00 0.00 0.00 86 1020.4
20190324092308 38 0 0.0 0.0 0.00 0.00 0.00 86 1020.5
20190324092208 37 0 0.0 0.0 0.00 0.00 0.00 86 1020.4
20190324092111 37 0 0.0 0.0 0.00 0.00 0.00 86 1020.4
20190324092008 37 0 0.0 0.0 0.00 0.00 0.00 86 1020.5
20190324091908 37 0 0.0 0.0 0.00 0.00 0.00 86 1020.5
20190324091808 37 0 0.0 0.0 0.00 0.00 0.00 85 1020.5
20190324091708 37 0 0.0 0.0 0.00 0.00 0.00 85 1020.5
20190324091609 37 0 0.0 0.0 0.00 0.00 0.00 85 1020.4
20190324091512 37 166 0.0 0.0 0.00 0.00 0.00 85 1022.0
20190324091408 37 0 0.0 0.0 0.00 0.00 0.00 85 1020.4
20190324091308 37 0 0.0 0.0 0.00 0.00 0.00 85 1020.4
20190324091208 37 0 0.0 0.0 0.00 0.00 0.00 85 1020.4
20190324091108 37 0 0.0 0.0 0.00 0.00 0.00 85 1020.4
20190324091008 37 0 0.0 0.0 0.00 0.00 0.00 85 1020.5
20190324090908 37 0 0.0 0.0 0.00 0.00 0.00 85 1020.5
20190324090808 37 0 0.0 0.0 0.00 0.00 0.00 85 1020.5
20190324090708 37 0 0.0 0.0 0.00 0.00 0.00 84 1020.5
20190324090610 37 0 0.0 0.0 0.00 0.00 0.00 84 1020.5
20190324090507 37 0 0.0 0.0 0.00 0.00 0.00 84 1020.5
20190324090408 37 0 0.0 0.0 0.00 0.00 0.00 84 1020.5
20190324090308 37 0 0.0 0.0 0.00 0.00 0.00 84 1020.5
20190324090208 37 0 0.0 0.0 0.00 0.00 0.00 84 1020.5
20190324090107 37 0 0.0 0.0 0.00 0.00 0.00 85 1020.6
20190324090008 37 0 0.0 0.0 0.00 0.00 0.00 85 1020.5
20190324085908 37 0 0.0 0.0 0.00 0.00 0.00 85 1020.5
20190324085808 37 0 0.0 0.0 0.00 0.00 0.00 85 1020.5
20190324085708 37 0 0.0 0.0 0.00 0.00 0.00 84 1020.5
20190324085607 37 0 0.0 0.0 0.00 0.00 0.00 84 1020.5
20190324085508 37 0 0.0 0.0 0.00 0.00 0.00 84 1020.5
20190324085408 37 0 0.0 0.0 0.00 0.00 0.00 85 1020.5
20190324085308 37 0 0.0 0.0 0.00 0.00 0.00 85 1020.5
20190324085208 37 0 0.0 0.0 0.00 0.00 0.00 85 1020.5
20190324085110 37 0 0.0 0.0 0.00 0.00 0.00 85 1020.5
20190324085008 37 0 0.0 0.0 0.00 0.00 0.00 84 1020.5
20190324084908 37 0 0.0 0.0 0.00 0.00 0.00 84 1020.5
20190324084808 37 0 0.0 0.0 0.00 0.00 0.00 84 1020.5
20190324084707 37 0 0.0 0.0 0.00 0.00 0.00 84 1020.6
20190324084608 37 0 0.0 0.0 0.00 0.00 0.00 84 1020.5
20190324084514 36 166 0.0 0.0 0.00 0.00 0.00 84 1022.1
20190324084508 37 0 0.0 0.0 0.00 0.00 0.00 84 1020.5
20190324084408 37 0 0.0 0.0 0.00 0.00 0.00 84 1020.5
20190324084308 37 0 0.0 0.0 0.00 0.00 0.00 84 1020.5
20190324084208 37 0 0.0 0.0 0.00 0.00 0.00 85 1020.5
20190324084107 37 0 0.0 0.0 0.00 0.00 0.00 84 1020.5
20190324084008 37 0 0.0 0.0 0.00 0.00 0.00 84 1020.6
20190324083908 37 0 0.0 0.0 0.00 0.00 0.00 84 1020.6
20190324083808 37 0 0.0 0.0 0.00 0.00 0.00 85 1020.6
20190324083708 37 0 0.0 0.0 0.00 0.00 0.00 84 1020.6
20190324083610 37 0 0.0 0.0 0.00 0.00 0.00 84 1020.6
20190324083508 37 0 0.0 0.0 0.00 0.00 0.00 84 1020.6
20190324083408 37 0 0.0 0.0 0.00 0.00 0.00 84 1020.7
20190324083308 37 0 0.0 0.0 0.00 0.00 0.00 84 1020.7
20190324083208 37 0 0.0 0.0 0.00 0.00 0.00 84 1020.7
20190324083107 37 0 0.0 0.0 0.00 0.00 0.00 84 1020.7
20190324083007 37 0 0.0 0.0 0.00 0.00 0.00 84 1020.7
20190324082908 37 0 0.0 0.0 0.00 0.00 0.00 84 1020.7
20190324082808 37 0 0.0 0.0 0.00 0.00 0.00 84 1020.8
20190324082708 37 0 0.0 0.0 0.00 0.00 0.00 84 1020.8
20190324082608 37 0 0.0 0.0 0.00 0.00 0.00 84 1020.8
20190324082508 37 0 0.0 0.0 0.00 0.00 0.00 84 1020.8
20190324082408 37 0 0.0 0.0 0.00 0.00 0.00 84 1020.8
20190324082308 37 0 0.0 0.0 0.00 0.00 0.00 84 1020.8
20190324082208 37 0 0.0 0.0 0.00 0.00 0.00 84 1020.8
20190324082110 37 0 0.0 0.0 0.00 0.00 0.00 84 1020.8
20190324082007 37 0 0.0 0.0 0.00 0.00 0.00 83 1020.8
20190324081908 37 0 0.0 0.0 0.00 0.00 0.00 83 1020.9
20190324081808 37 0 0.0 0.0 0.00 0.00 0.00 83 1020.9
20190324081708 37 0 0.0 0.0 0.00 0.00 0.00 83 1020.9
20190324081608 37 0 0.0 0.0 0.00 0.00 0.00 82 1020.9
20190324081508 37 0 0.0 0.0 0.00 0.00 0.00 82 1020.9
20190324081408 37 0 0.0 0.0 0.00 0.00 0.00 82 1020.9
20190324081308 37 0 0.0 0.0 0.00 0.00 0.00 82 1021.0
20190324081208 37 0 0.0 0.0 0.00 0.00 0.00 82 1021.0
20190324081107 37 0 0.0 0.0 0.00 0.00 0.00 82 1021.0
20190324081007 37 0 0.0 0.0 0.00 0.00 0.00 82 1021.0
20190324080908 37 0 0.0 0.0 0.00 0.00 0.00 82 1021.0
20190324080808 37 0 0.0 0.0 0.00 0.00 0.00 82 1021.0
20190324080707 37 0 0.0 0.0 0.00 0.00 0.00 82 1021.0
20190324080610 37 0 0.0 0.0 0.00 0.00 0.00 82 1021.0
20190324080508 37 0 0.0 0.0 0.00 0.00 0.00 82 1021.0
20190324080408 37 0 0.0 0.0 0.00 0.00 0.00 82 1021.0
20190324080308 37 0 0.0 0.0 0.00 0.00 0.00 82 1021.1
20190324080208 37 0 0.0 0.0 0.00 0.00 0.00 82 1021.0
20190324080108 37 0 0.0 0.0 0.00 0.00 0.00 82 1021.1
20190324080007 37 0 0.0 0.0 0.00 0.00 0.00 82 1021.1
20190324075908 37 0 0.0 0.0 0.00 0.00 0.00 82 1021.1
20190324075808 37 0 0.0 0.0 0.00 0.00 0.00 82 1021.1
20190324075708 37 0 0.0 0.0 0.00 0.00 0.00 82 1021.1
20190324075608 37 0 0.0 0.0 0.00 0.00 0.00 82 1021.2
20190324075507 37 0 0.0 0.0 0.00 0.00 0.00 81 1021.2
20190324075408 37 0 0.0 0.0 0.00 0.00 0.00 81 1021.2
20190324075308 37 0 0.0 0.0 0.00 0.00 0.00 81 1021.2
20190324075208 37 0 0.0 0.0 0.00 0.00 0.00 81 1021.2
20190324075110 37 0 0.0 0.0 0.00 0.00 0.00 81 1021.3
20190324075007 37 0 0.0 0.0 0.00 0.00 0.00 81 1021.3
20190324074908 37 0 0.0 0.0 0.00 0.00 0.00 81 1021.2
20190324074808 37 0 0.0 0.0 0.00 0.00 0.00 81 1021.2
20190324074708 37 0 0.0 0.0 0.00 0.00 0.00 81 1021.2
20190324074607 37 0 0.0 0.0 0.00 0.00 0.00 81 1021.3
20190324074508 37 0 0.0 0.0 0.00 0.00 0.00 81 1021.3
20190324074408 38 0 0.0 0.0 0.00 0.00 0.00 81 1021.3
20190324074308 38 0 0.0 0.0 0.00 0.00 0.00 81 1021.2
20190324074208 38 0 0.0 0.0 0.00 0.00 0.00 80 1021.2
20190324074107 38 0 0.0 0.0 0.00 0.00 0.00 81 1021.3
20190324074008 38 0 0.0 0.0 0.00 0.00 0.00 80 1021.3
20190324073908 38 0 0.0 0.0 0.00 0.00 0.00 80 1021.3
20190324073808 38 0 0.0 0.0 0.00 0.00 0.00 80 1021.3
20190324073707 38 0 0.0 0.0 0.00 0.00 0.00 80 1021.3
20190324073610 38 0 0.0 0.0 0.00 0.00 0.00 80 1021.3
20190324073508 38 0 0.0 0.0 0.00 0.00 0.00 80 1021.3
20190324073408 38 0 0.0 0.0 0.00 0.00 0.00 80 1021.4
20190324073308 38 0 0.0 0.0 0.00 0.00 0.00 80 1021.4
20190324073207 38 0 0.0 0.0 0.00 0.00 0.00 79 1021.4
20190324073107 38 0 0.0 0.0 0.00 0.00 0.00 79 1021.4
20190324073008 38 0 0.0 0.0 0.00 0.00 0.00 79 1021.4
20190324072908 38 0 0.0 0.0 0.00 0.00 0.00 79 1021.4
20190324072807 38 0 0.0 0.0 0.00 0.00 0.00 79 1021.4
20190324072707 38 0 0.0 0.0 0.00 0.00 0.00 79 1021.4
20190324072608 38 0 0.0 0.0 0.00 0.00 0.00 79 1021.4
20190324072508 38 0 0.0 0.0 0.00 0.00 0.00 79 1021.4
20190324072408 38 0 0.0 0.0 0.00 0.00 0.00 79 1021.5
20190324072308 39 0 0.0 0.0 0.00 0.00 0.00 79 1021.5
20190324072207 39 0 0.0 0.0 0.00 0.00 0.00 79 1021.5
20190324072110 39 0 0.0 0.0 0.00 0.00 0.00 79 1021.5
20190324072008 39 0 0.0 0.0 0.00 0.00 0.00 78 1021.5
20190324071908 39 0 0.0 0.0 0.00 0.00 0.00 78 1021.5
20190324071808 39 0 0.0 0.0 0.00 0.00 0.00 78 1021.5
20190324071707 39 0 0.0 0.0 0.00 0.00 0.00 78 1021.5
20190324071608 39 0 0.0 0.0 0.00 0.00 0.00 78 1021.6
20190324071528 39 166 0.0 0.0 0.00 0.00 0.00 78 1023.1
20190324071508 39 0 0.0 0.0 0.00 0.00 0.00 78 1021.5
20190324071408 39 0 0.0 0.0 0.00 0.00 0.00 78 1021.5
20190324071307 39 0 0.0 0.0 0.00 0.00 0.00 78 1021.5
20190324071207 39 0 0.0 0.0 0.00 0.00 0.00 78 1021.5
20190324071108 39 0 0.0 0.0 0.00 0.00 0.00 78 1021.5
20190324071008 39 0 0.0 0.0 0.00 0.00 0.00 78 1021.5
20190324070908 39 0 0.0 0.0 0.00 0.00 0.00 78 1021.5
20190324070807 39 0 0.0 0.0 0.00 0.00 0.00 78 1021.6
20190324070707 39 0 0.0 0.0 0.00 0.00 0.00 78 1021.6
20190324070611 39 0 0.0 0.0 0.00 0.00 0.00 78 1021.6
20190324070508 39 0 0.0 0.0 0.00 0.00 0.00 78 1021.6
20190324070408 39 0 0.0 0.0 0.00 0.00 0.00 78 1021.6
20190324070307 39 0 0.0 0.0 0.00 0.00 0.00 78 1021.6
20190324070207 39 0 0.0 0.0 0.00 0.00 0.00 78 1021.6
20190324070108 39 0 0.0 0.0 0.00 0.00 0.00 78 1021.5
20190324070008 39 0 0.0 0.0 0.00 0.00 0.00 78 1021.6
20190324065907 39 0 0.0 0.0 0.00 0.00 0.00 78 1021.6
20190324065808 39 0 0.0 0.0 0.00 0.00 0.00 78 1021.6
20190324065707 39 0 0.0 0.0 0.00 0.00 0.00 78 1021.6
20190324065608 39 0 0.0 0.0 0.00 0.00 0.00 78 1021.6
20190324065508 40 0 0.0 0.0 0.00 0.00 0.00 79 1021.6
20190324065408 40 0 0.0 0.0 0.00 0.00 0.00 79 1021.6
20190324065308 40 0 0.0 0.0 0.00 0.00 0.00 78 1021.7
20190324065207 40 0 0.0 0.0 0.00 0.00 0.00 79 1021.7
20190324065111 40 0 0.0 0.0 0.00 0.00 0.00 79 1021.7
20190324065008 40 0 0.0 0.0 0.00 0.00 0.00 79 1021.7
20190324064908 40 0 0.0 0.0 0.00 0.00 0.00 79 1021.7
20190324064808 40 0 0.0 0.0 0.00 0.00 0.00 79 1021.7
20190324064708 40 0 0.0 0.0 0.00 0.00 0.00 79 1021.7
20190324064608 40 0 0.0 0.0 0.00 0.00 0.00 79 1021.8
20190324064510 39 155 0.0 0.0 0.00 0.00 0.00 79 1023.4
20190324064508 40 0 0.0 0.0 0.00 0.00 0.00 79 1021.8
20190324064407 40 0 0.0 0.0 0.00 0.00 0.00 78 1021.8
20190324064307 40 0 0.0 0.0 0.00 0.00 0.00 78 1021.8
20190324064208 40 0 0.0 0.0 0.00 0.00 0.00 78 1021.9
20190324064108 40 0 0.0 0.0 0.00 0.00 0.00 78 1021.8
20190324064008 40 0 0.0 0.0 0.00 0.00 0.00 78 1021.8
20190324063907 40 0 0.0 0.0 0.00 0.00 0.00 78 1021.8
20190324063807 40 0 0.0 0.0 0.00 0.00 0.00 78 1021.9
20190324063708 40 0 0.0 0.0 0.00 0.00 0.00 78 1021.9
20190324063611 40 0 0.0 0.0 0.00 0.00 0.00 77 1021.9
20190324063508 40 0 0.0 0.0 0.00 0.00 0.00 77 1021.8
20190324063408 40 0 0.0 0.0 0.00 0.00 0.00 77 1021.9
20190324063307 40 0 0.0 0.0 0.00 0.00 0.00 77 1021.9
20190324063208 40 0 0.0 0.0 0.00 0.00 0.00 77 1021.9
20190324063108 40 0 0.0 0.0 0.00 0.00 0.00 77 1021.9
20190324063008 40 0 0.0 0.0 0.00 0.00 0.00 77 1022.0
20190324062907 40 0 0.0 0.0 0.00 0.00 0.00 76 1022.0
20190324062807 40 0 0.0 0.0 0.00 0.00 0.00 76 1022.0
20190324062708 40 0 0.0 0.0 0.00 0.00 0.00 76 1022.0
20190324062608 41 0 0.0 0.0 0.00 0.00 0.00 76 1022.0
20190324062508 41 0 0.0 0.0 0.00 0.00 0.00 76 1021.9
20190324062408 41 0 0.0 0.0 0.00 0.00 0.00 76 1021.9
20190324062307 41 0 0.0 0.0 0.00 0.00 0.00 76 1021.9
20190324062208 41 0 0.0 0.0 0.00 0.00 0.00 76 1022.0
20190324062111 41 0 0.0 0.0 0.00 0.00 0.00 76 1022.0
20190324062008 41 144 0.0 2.0 0.00 0.00 0.00 76 1022.0
20190324061907 41 144 0.0 2.0 0.00 0.00 0.00 76 1022.0
20190324061808 41 144 0.0 2.0 0.00 0.00 0.00 75 1021.9
20190324061708 41 144 0.0 2.0 0.00 0.00 0.00 75 1022.0
20190324061608 41 144 0.0 2.0 0.00 0.00 0.00 75 1021.9
20190324061544 40 145 0.0 1.0 0.00 0.00 0.00 76 1023.5
20190324061507 41 141 0.0 2.0 0.00 0.00 0.00 76 1021.9
20190324061407 41 140 0.0 2.0 0.00 0.00 0.00 76 1022.0
20190324061307 41 140 0.0 2.0 0.00 0.00 0.00 76 1021.9
20190324061208 41 140 0.0 2.0 0.00 0.00 0.00 75 1022.0
20190324061108 41 140 0.0 2.0 0.00 0.00 0.00 75 1022.0
20190324061008 41 138 0.0 2.0 0.00 0.00 0.00 75 1022.0
20190324060907 41 138 0.0 2.0 0.00 0.00 0.00 75 1022.0
20190324060807 41 138 0.0 2.0 0.00 0.00 0.00 75 1022.0
20190324060708 41 138 0.0 2.0 0.00 0.00 0.00 75 1022.0
20190324060611 41 138 0.0 2.0 0.00 0.00 0.00 75 1022.0
20190324060507 41 138 0.0 2.0 0.00 0.00 0.00 75 1022.0
20190324060407 41 139 0.0 2.0 0.00 0.00 0.00 75 1022.0
20190324060307 41 139 0.0 2.0 0.00 0.00 0.00 75 1022.0
20190324060208 41 139 0.0 2.0 0.00 0.00 0.00 75 1022.0
20190324060108 41 139 0.0 2.0 0.00 0.00 0.00 75 1022.1
20190324060008 41 130 0.0 3.0 0.00 0.00 0.00 75 1022.0
20190324055907 41 132 0.0 4.0 0.00 0.00 0.00 74 1022.0
20190324055808 41 136 0.0 4.0 0.00 0.00 0.00 74 1022.1
20190324055708 41 136 0.0 4.0 0.00 0.00 0.00 74 1022.0
20190324055608 41 136 0.0 4.0 0.00 0.00 0.00 74 1022.1
20190324055507 41 136 0.0 4.0 0.00 0.00 0.00 74 1022.1
20190324055407 42 136 0.0 4.0 0.00 0.00 0.00 74 1022.1
20190324055308 42 144 0.0 4.0 0.00 0.00 0.00 74 1022.1
20190324055208 42 163 0.0 4.0 0.00 0.00 0.00 74 1022.1
20190324055111 42 163 0.0 4.0 0.00 0.00 0.00 73 1022.1
20190324055007 42 171 0.0 4.0 0.00 0.00 0.00 74 1022.1
20190324054907 42 207 0.0 2.0 0.00 0.00 0.00 74 1022.1
20190324054807 42 208 0.0 2.0 0.00 0.00 0.00 74 1022.1
20190324054708 42 208 0.0 2.0 0.00 0.00 0.00 73 1022.1
20190324054608 42 208 0.0 2.0 0.00 0.00 0.00 73 1022.2
20190324054513 41 207 0.0 1.0 0.00 0.00 0.00 73 1023.8
20190324054508 42 208 0.0 2.0 0.00 0.00 0.00 73 1022.2
20190324054408 42 201 0.0 2.0 0.00 0.00 0.00 73 1022.1
20190324054307 42 199 0.0 2.0 0.00 0.00 0.00 73 1022.1
20190324054208 42 191 0.0 2.0 0.00 0.00 0.00 74 1022.2
20190324054108 42 191 0.0 2.0 0.00 0.00 0.00 74 1022.2
20190324054008 42 188 0.0 2.0 0.00 0.00 0.00 74 1022.2
20190324053907 42 154 0.0 3.0 0.00 0.00 0.00 73 1022.2
20190324053807 42 154 0.0 3.0 0.00 0.00 0.00 73 1022.2
20190324053708 42 154 0.0 3.0 0.00 0.00 0.00 74 1022.2
20190324053611 42 154 0.0 3.0 0.00 0.00 0.00 74 1022.2
20190324053508 42 154 0.0 3.0 0.00 0.00 0.00 74 1022.2
20190324053407 42 139 0.0 3.0 0.00 0.00 0.00 74 1022.3
20190324053307 42 139 0.0 3.0 0.00 0.00 0.00 74 1022.2
20190324053208 42 139 0.0 3.0 0.00 0.00 0.00 74 1022.2
20190324053108 42 139 0.0 3.0 0.00 0.00 0.00 74 1022.2
20190324053008 42 139 0.0 3.0 0.00 0.00 0.00 74 1022.2
20190324052907 42 0 0.0 0.0 0.00 0.00 0.00 74 1022.2
20190324052808 42 0 0.0 0.0 0.00 0.00 0.00 74 1022.2
20190324052708 42 0 0.0 0.0 0.00 0.00 0.00 74 1022.2
20190324052608 42 0 0.0 0.0 0.00 0.00 0.00 74 1022.2
20190324052507 42 0 0.0 0.0 0.00 0.00 0.00 74 1022.2
20190324052407 42 0 0.0 0.0 0.00 0.00 0.00 73 1022.2
20190324052308 42 0 0.0 0.0 0.00 0.00 0.00 73 1022.3
20190324052208 42 0 0.0 0.0 0.00 0.00 0.00 73 1022.3
20190324052110 42 0 0.0 0.0 0.00 0.00 0.00 73 1022.3
20190324052008 42 0 0.0 0.0 0.00 0.00 0.00 73 1022.3
20190324051907 42 0 0.0 0.0 0.00 0.00 0.00 74 1022.2
20190324051808 42 0 0.0 0.0 0.00 0.00 0.00 74 1022.3
20190324051708 41 0 0.0 0.0 0.00 0.00 0.00 74 1022.3
20190324051608 41 0 0.0 0.0 0.00 0.00 0.00 74 1022.3
20190324051508 41 175 0.0 0.0 0.00 0.00 0.00 74 1024.0
20190324051407 41 0 0.0 0.0 0.00 0.00 0.00 74 1022.2
20190324051308 41 0 0.0 0.0 0.00 0.00 0.00 75 1022.3
20190324051208 41 0 0.0 0.0 0.00 0.00 0.00 75 1022.2
20190324051108 41 0 0.0 0.0 0.00 0.00 0.00 75 1022.2
20190324051007 41 0 0.0 0.0 0.00 0.00 0.00 75 1022.3
20190324050907 41 0 0.0 0.0 0.00 0.00 0.00 75 1022.3
20190324050808 41 0 0.0 0.0 0.00 0.00 0.00 76 1022.3
20190324050708 41 0 0.0 0.0 0.00 0.00 0.00 76 1022.3
20190324050610 40 0 0.0 0.0 0.00 0.00 0.00 76 1022.3
20190324050507 40 0 0.0 0.0 0.00 0.00 0.00 77 1022.3
20190324050407 40 0 0.0 0.0 0.00 0.00 0.00 77 1022.3
20190324050308 40 0 0.0 0.0 0.00 0.00 0.00 77 1022.3
20190324050208 40 0 0.0 0.0 0.00 0.00 0.00 77 1022.3
20190324050107 40 0 0.0 0.0 0.00 0.00 0.00 77 1022.3
20190324050008 40 0 0.0 0.0 0.00 0.00 0.00 78 1022.3
20190324045908 40 0 0.0 0.0 0.00 0.00 0.00 78 1022.3
20190324045807 40 0 0.0 0.0 0.00 0.00 0.00 78 1022.3
20190324045707 40 0 0.0 0.0 0.00 0.00 0.00 78 1022.3
20190324045608 40 0 0.0 0.0 0.00 0.00 0.00 79 1022.3
20190324045508 40 0 0.0 0.0 0.00 0.00 0.00 79 1022.3
20190324045407 40 0 0.0 0.0 0.00 0.00 0.00 79 1022.3
20190324045307 40 0 0.0 0.0 0.00 0.00 0.00 79 1022.3
20190324045207 40 0 0.0 0.0 0.00 0.00 0.00 80 1022.3
20190324045111 40 0 0.0 0.0 0.00 0.00 0.00 79 1022.3
20190324045008 40 0 0.0 0.0 0.00 0.00 0.00 79 1022.3
20190324044907 39 0 0.0 0.0 0.00 0.00 0.00 79 1022.3
20190324044807 39 0 0.0 0.0 0.00 0.00 0.00 79 1022.3
20190324044708 39 0 0.0 0.0 0.00 0.00 0.00 80 1022.3
20190324044608 39 0 0.0 0.0 0.00 0.00 0.00 80 1022.3
20190324044516 39 148 0.0 0.0 0.00 0.00 0.00 80 1024.0
20190324044508 39 0 0.0 0.0 0.00 0.00 0.00 80 1022.3
20190324044407 39 0 0.0 0.0 0.00 0.00 0.00 80 1022.3
20190324044307 39 0 0.0 0.0 0.00 0.00 0.00 80 1022.4
20190324044208 39 0 0.0 0.0 0.00 0.00 0.00 80 1022.3
20190324044108 39 0 0.0 0.0 0.00 0.00 0.00 80 1022.3
20190324044007 39 0 0.0 0.0 0.00 0.00 0.00 81 1022.3
20190324043907 39 0 0.0 0.0 0.00 0.00 0.00 81 1022.3
20190324043808 39 0 0.0 0.0 0.00 0.00 0.00 81 1022.3
20190324043708 39 0 0.0 0.0 0.00 0.00 0.00 81 1022.3
20190324043610 39 0 0.0 0.0 0.00 0.00 0.00 81 1022.3
20190324043507 39 0 0.0 0.0 0.00 0.00 0.00 81 1022.3
20190324043407 39 0 0.0 0.0 0.00 0.00 0.00 81 1022.3
20190324043308 38 0 0.0 0.0 0.00 0.00 0.00 81 1022.3
20190324043208 38 0 0.0 0.0 0.00 0.00 0.00 81 1022.3
20190324043107 38 0 0.0 0.0 0.00 0.00 0.00 82 1022.3
20190324043007 38 0 0.0 0.0 0.00 0.00 0.00 82 1022.3
20190324042907 38 0 0.0 0.0 0.00 0.00 0.00 82 1022.3
20190324042808 38 0 0.0 0.0 0.00 0.00 0.00 82 1022.3
20190324042708 38 0 0.0 0.0 0.00 0.00 0.00 82 1022.3
20190324042607 38 0 0.0 0.0 0.00 0.00 0.00 82 1022.3
20190324042507 38 0 0.0 0.0 0.00 0.00 0.00 82 1022.2
20190324042407 38 0 0.0 0.0 0.00 0.00 0.00 82 1022.2
20190324042308 38 0 0.0 0.0 0.00 0.00 0.00 82 1022.3
20190324042209 38 0 0.0 0.0 0.00 0.00 0.00 83 1022.3
20190324042110 38 0 0.0 0.0 0.00 0.00 0.00 83 1022.3
20190324042007 38 0 0.0 0.0 0.00 0.00 0.00 83 1022.3
20190324041908 38 0 0.0 0.0 0.00 0.00 0.00 83 1022.3
20190324041808 38 0 0.0 0.0 0.00 0.00 0.00 83 1022.3
20190324041707 38 0 0.0 0.0 0.00 0.00 0.00 82 1022.3
20190324041607 38 0 0.0 0.0 0.00 0.00 0.00 82 1022.3
20190324041511 37 188 0.0 0.0 0.00 0.00 0.00 82 1023.9
20190324041508 38 0 0.0 0.0 0.00 0.00 0.00 82 1022.3
20190324041408 38 0 0.0 0.0 0.00 0.00 0.00 82 1022.3
20190324041307 38 0 0.0 0.0 0.00 0.00 0.00 82 1022.3
20190324041207 38 0 0.0 0.0 0.00 0.00 0.00 82 1022.2
20190324041107 38 0 0.0 0.0 0.00 0.00 0.00 82 1022.2
20190324041008 38 0 0.0 0.0 0.00 0.00 0.00 82 1022.2
20190324040908 38 0 0.0 0.0 0.00 0.00 0.00 82 1022.3
20190324040808 38 0 0.0 0.0 0.00 0.00 0.00 82 1022.3
20190324040708 38 0 0.0 0.0 0.00 0.00 0.00 82 1022.2
20190324040611 38 0 0.0 0.0 0.00 0.00 0.00 82 1022.2
20190324040508 38 0 0.0 0.0 0.00 0.00 0.00 82 1022.3
20190324040408 38 0 0.0 0.0 0.00 0.00 0.00 82 1022.3
20190324040308 38 0 0.0 0.0 0.00 0.00 0.00 82 1022.2
20190324040207 38 0 0.0 0.0 0.00 0.00 0.00 83 1022.3
20190324040108 38 0 0.0 0.0 0.00 0.00 0.00 82 1022.3
20190324040008 38 0 0.0 0.0 0.00 0.00 0.00 83 1022.3
20190324035907 38 0 0.0 0.0 0.00 0.00 0.00 82 1022.3
20190324035807 38 0 0.0 0.0 0.00 0.00 0.00 82 1022.3
20190324035707 38 0 0.0 0.0 0.00 0.00 0.00 82 1022.3
20190324035608 38 0 0.0 0.0 0.00 0.00 0.00 82 1022.3
20190324035508 38 0 0.0 0.0 0.00 0.00 0.00 82 1022.3
20190324035408 38 0 0.0 0.0 0.00 0.00 0.00 82 1022.3
20190324035307 38 0 0.0 0.0 0.00 0.00 0.00 82 1022.3
20190324035208 38 0 0.0 0.0 0.00 0.00 0.00 82 1022.3
20190324035111 38 0 0.0 0.0 0.00 0.00 0.00 82 1022.3
20190324035008 38 0 0.0 0.0 0.00 0.00 0.00 82 1022.3
20190324034907 38 0 0.0 0.0 0.00 0.00 0.00 82 1022.3
20190324034807 38 0 0.0 0.0 0.00 0.00 0.00 82 1022.4
20190324034708 38 0 0.0 0.0 0.00 0.00 0.00 82 1022.3
20190324034607 38 0 0.0 0.0 0.00 0.00 0.00 82 1022.3
20190324034508 37 188 0.0 0.0 0.00 0.00 0.00 82 1024.1
20190324034407 38 0 0.0 0.0 0.00 0.00 0.00 82 1022.3
20190324034308 38 0 0.0 0.0 0.00 0.00 0.00 82 1022.3
20190324034208 38 0 0.0 0.0 0.00 0.00 0.00 82 1022.3
20190324034107 38 0 0.0 0.0 0.00 0.00 0.00 82 1022.3
20190324034007 38 0 0.0 0.0 0.00 0.00 0.00 82 1022.3
20190324033907 38 0 0.0 0.0 0.00 0.00 0.00 82 1022.3
20190324033808 38 0 0.0 0.0 0.00 0.00 0.00 82 1022.3
20190324033707 38 0 0.0 0.0 0.00 0.00 0.00 82 1022.3
20190324033610 38 0 0.0 0.0 0.00 0.00 0.00 82 1022.3
20190324033507 38 0 0.0 0.0 0.00 0.00 0.00 82 1022.3
20190324033408 38 0 0.0 0.0 0.00 0.00 0.00 82 1022.3
20190324033307 38 0 0.0 0.0 0.00 0.00 0.00 82 1022.3
20190324033207 38 0 0.0 0.0 0.00 0.00 0.00 82 1022.3
20190324033107 38 0 0.0 0.0 0.00 0.00 0.00 82 1022.3
20190324033008 38 0 0.0 0.0 0.00 0.00 0.00 82 1022.3
20190324032907 38 0 0.0 0.0 0.00 0.00 0.00 82 1022.3
20190324032807 38 0 0.0 0.0 0.00 0.00 0.00 82 1022.3
20190324032707 38 0 0.0 0.0 0.00 0.00 0.00 82 1022.3
20190324032608 38 0 0.0 0.0 0.00 0.00 0.00 82 1022.3
20190324032508 38 0 0.0 0.0 0.00 0.00 0.00 82 1022.2
20190324032407 38 0 0.0 0.0 0.00 0.00 0.00 82 1022.3
20190324032307 38 0 0.0 0.0 0.00 0.00 0.00 82 1022.2
20190324032207 38 0 0.0 0.0 0.00 0.00 0.00 81 1022.2
20190324032111 38 0 0.0 0.0 0.00 0.00 0.00 82 1022.3
20190324032008 38 0 0.0 0.0 0.00 0.00 0.00 82 1022.3
20190324031907 38 0 0.0 0.0 0.00 0.00 0.00 82 1022.3
20190324031807 38 0 0.0 0.0 0.00 0.00 0.00 82 1022.3
20190324031707 38 0 0.0 0.0 0.00 0.00 0.00 82 1022.3
20190324031608 38 0 0.0 0.0 0.00 0.00 0.00 81 1022.3
20190324031509 37 192 0.0 0.0 0.00 0.00 0.00 81 1024.0
20190324031407 38 0 0.0 0.0 0.00 0.00 0.00 81 1022.3
20190324031307 38 0 0.0 0.0 0.00 0.00 0.00 81 1022.3
20190324031207 38 0 0.0 0.0 0.00 0.00 0.00 81 1022.4
20190324031108 38 0 0.0 0.0 0.00 0.00 0.00 81 1022.3
20190324031007 38 0 0.0 0.0 0.00 0.00 0.00 81 1022.3
20190324030907 38 0 0.0 0.0 0.00 0.00 0.00 81 1022.3
20190324030807 38 0 0.0 0.0 0.00 0.00 0.00 81 1022.3
20190324030708 38 0 0.0 0.0 0.00 0.00 0.00 81 1022.4
20190324030611 38 0 0.0 0.0 0.00 0.00 0.00 81 1022.4
20190324030507 38 0 0.0 0.0 0.00 0.00 0.00 81 1022.4
20190324030407 38 0 0.0 0.0 0.00 0.00 0.00 81 1022.4
20190324030307 38 0 0.0 0.0 0.00 0.00 0.00 81 1022.4
20190324030207 38 0 0.0 0.0 0.00 0.00 0.00 81 1022.4
20190324030108 38 0 0.0 0.0 0.00 0.00 0.00 81 1022.3
20190324030008 38 0 0.0 0.0 0.00 0.00 0.00 81 1022.3
20190324025907 38 0 0.0 0.0 0.00 0.00 0.00 81 1022.3
20190324025807 38 0 0.0 0.0 0.00 0.00 0.00 81 1022.3
20190324025708 38 0 0.0 0.0 0.00 0.00 0.00 81 1022.4
20190324025607 38 0 0.0 0.0 0.00 0.00 0.00 81 1022.4
20190324025507 38 0 0.0 0.0 0.00 0.00 0.00 81 1022.4
20190324025407 38 0 0.0 0.0 0.00 0.00 0.00 80 1022.4
20190324025308 38 0 0.0 0.0 0.00 0.00 0.00 80 1022.4
20190324025208 38 0 0.0 0.0 0.00 0.00 0.00 81 1022.4
20190324025110 38 0 0.0 0.0 0.00 0.00 0.00 81 1022.4
20190324025007 38 0 0.0 0.0 0.00 0.00 0.00 81 1022.4
20190324024908 38 0 0.0 0.0 0.00 0.00 0.00 80 1022.4
20190324024808 38 0 0.0 0.0 0.00 0.00 0.00 81 1022.4
20190324024707 38 0 0.0 0.0 0.00 0.00 0.00 80 1022.5
20190324024607 38 0 0.0 0.0 0.00 0.00 0.00 80 1022.5
20190324024511 38 192 0.0 0.0 0.00 0.00 0.00 80 1024.2
20190324024508 38 0 0.0 0.0 0.00 0.00 0.00 80 1022.5
20190324024408 38 0 0.0 0.0 0.00 0.00 0.00 80 1022.5
20190324024307 38 0 0.0 0.0 0.00 0.00 0.00 80 1022.5
20190324024207 38 0 0.0 0.0 0.00 0.00 0.00 80 1022.5
20190324024107 38 0 0.0 0.0 0.00 0.00 0.00 80 1022.5
20190324024008 38 0 0.0 0.0 0.00 0.00 0.00 80 1022.5
20190324023908 38 0 0.0 0.0 0.00 0.00 0.00 80 1022.5
20190324023807 38 0 0.0 0.0 0.00 0.00 0.00 80 1022.6
20190324023707 38 0 0.0 0.0 0.00 0.00 0.00 80 1022.6
20190324023611 38 0 0.0 0.0 0.00 0.00 0.00 80 1022.6
20190324023508 38 0 0.0 0.0 0.00 0.00 0.00 81 1022.6
20190324023407 38 0 0.0 0.0 0.00 0.00 0.00 81 1022.6
20190324023307 38 0 0.0 0.0 0.00 0.00 0.00 81 1022.6
20190324023207 38 0 0.0 0.0 0.00 0.00 0.00 82 1022.6
20190324023107 38 0 0.0 0.0 0.00 0.00 0.00 81 1022.7
20190324023008 38 0 0.0 0.0 0.00 0.00 0.00 81 1022.7
20190324022907 38 0 0.0 0.0 0.00 0.00 0.00 81 1022.6
20190324022807 38 0 0.0 0.0 0.00 0.00 0.00 81 1022.7
20190324022707 38 0 0.0 0.0 0.00 0.00 0.00 81 1022.7
20190324022607 38 0 0.0 0.0 0.00 0.00 0.00 81 1022.7
20190324022508 38 0 0.0 0.0 0.00 0.00 0.00 81 1022.6
20190324022408 38 0 0.0 0.0 0.00 0.00 0.00 81 1022.6
20190324022307 38 0 0.0 0.0 0.00 0.00 0.00 81 1022.6
20190324022207 38 0 0.0 0.0 0.00 0.00 0.00 82 1022.6
20190324022110 38 0 0.0 0.0 0.00 0.00 0.00 81 1022.6
20190324022008 38 0 0.0 0.0 0.00 0.00 0.00 81 1022.6
20190324021908 38 0 0.0 0.0 0.00 0.00 0.00 81 1022.6
20190324021807 38 0 0.0 0.0 0.00 0.00 0.00 80 1022.7
20190324021707 38 0 0.0 0.0 0.00 0.00 0.00 79 1022.7
20190324021608 38 0 0.0 0.0 0.00 0.00 0.00 79 1022.7
20190324021510 38 192 0.0 0.0 0.00 0.00 0.00 79 1024.5
20190324021508 38 0 0.0 0.0 0.00 0.00 0.00 79 1022.7
20190324021407 38 0 0.0 0.0 0.00 0.00 0.00 79 1022.7
20190324021307 38 0 0.0 0.0 0.00 0.00 0.00 79 1022.7
20190324021208 38 0 0.0 0.0 0.00 0.00 0.00 79 1022.7
20190324021108 38 0 0.0 0.0 0.00 0.00 0.00 79 1022.7
20190324021007 38 0 0.0 0.0 0.00 0.00 0.00 79 1022.7
20190324020907 38 0 0.0 0.0 0.00 0.00 0.00 79 1022.7
20190324020808 38 0 0.0 0.0 0.00 0.00 0.00 79 1022.7
20190324020707 38 0 0.0 0.0 0.00 0.00 0.00 79 1022.8
20190324020610 38 0 0.0 0.0 0.00 0.00 0.00 79 1022.8
20190324020507 38 0 0.0 0.0 0.00 0.00 0.00 79 1022.8
20190324020408 39 0 0.0 0.0 0.00 0.00 0.00 79 1022.8
20190324020307 39 0 0.0 0.0 0.00 0.00 0.00 79 1022.9
20190324020207 39 0 0.0 0.0 0.00 0.00 0.00 79 1022.9
20190324020107 39 0 0.0 0.0 0.00 0.00 0.00 79 1022.9
20190324020007 39 0 0.0 0.0 0.00 0.00 0.00 79 1022.9
20190324015908 39 0 0.0 0.0 0.00 0.00 0.00 79 1022.9
20190324015807 39 0 0.0 0.0 0.00 0.00 0.00 79 1022.9
20190324015707 39 0 0.0 0.0 0.00 0.00 0.00 79 1022.9
20190324015608 39 0 0.0 0.0 0.00 0.00 0.00 80 1022.9
20190324015508 39 0 0.0 0.0 0.00 0.00 0.00 80 1022.9
20190324015407 39 0 0.0 0.0 0.00 0.00 0.00 79 1022.9
20190324015307 39 0 0.0 0.0 0.00 0.00 0.00 79 1022.9
20190324015208 39 0 0.0 0.0 0.00 0.00 0.00 79 1022.9
20190324015111 39 0 0.0 0.0 0.00 0.00 0.00 78 1022.9
20190324015007 39 0 0.0 0.0 0.00 0.00 0.00 78 1022.9
20190324014907 39 0 0.0 0.0 0.00 0.00 0.00 79 1023.0
20190324014808 39 0 0.0 0.0 0.00 0.00 0.00 78 1023.0
20190324014707 39 0 0.0 0.0 0.00 0.00 0.00 78 1023.0
20190324014607 39 0 0.0 0.0 0.00 0.00 0.00 77 1023.0
20190324014507 39 0 0.0 0.0 0.00 0.00 0.00 77 1022.9
20190324014407 39 0 0.0 0.0 0.00 0.00 0.00 77 1022.9
20190324014308 39 0 0.0 0.0 0.00 0.00 0.00 77 1022.9
20190324014207 39 0 0.0 0.0 0.00 0.00 0.00 77 1022.9
20190324014107 39 0 0.0 0.0 0.00 0.00 0.00 77 1022.9
20190324014007 39 0 0.0 0.0 0.00 0.00 0.00 77 1022.9
20190324013907 39 0 0.0 0.0 0.00 0.00 0.00 77 1022.9
20190324013808 39 0 0.0 0.0 0.00 0.00 0.00 77 1022.9
20190324013707 39 0 0.0 0.0 0.00 0.00 0.00 77 1023.0
20190324013610 40 0 0.0 0.0 0.00 0.00 0.00 77 1023.0
20190324013507 40 0 0.0 0.0 0.00 0.00 0.00 76 1023.0
20190324013407 40 0 0.0 0.0 0.00 0.00 0.00 76 1023.0
20190324013308 40 0 0.0 0.0 0.00 0.00 0.00 76 1023.0
20190324013208 40 0 0.0 0.0 0.00 0.00 0.00 76 1023.0
20190324013107 40 0 0.0 0.0 0.00 0.00 0.00 76 1023.0
20190324013007 40 0 0.0 0.0 0.00 0.00 0.00 75 1023.0
20190324012907 40 0 0.0 0.0 0.00 0.00 0.00 75 1022.9
20190324012808 40 0 0.0 0.0 0.00 0.00 0.00 75 1023.0
20190324012708 40 0 0.0 0.0 0.00 0.00 0.00 75 1023.0
20190324012607 40 0 0.0 0.0 0.00 0.00 0.00 75 1023.0
20190324012507 40 0 0.0 0.0 0.00 0.00 0.00 75 1023.0
20190324012407 40 0 0.0 0.0 0.00 0.00 0.00 75 1023.0
20190324012307 40 0 0.0 0.0 0.00 0.00 0.00 75 1023.0
20190324012207 40 0 0.0 0.0 0.00 0.00 0.00 75 1023.0
20190324012110 40 0 0.0 0.0 0.00 0.00 0.00 74 1023.0
20190324012008 40 0 0.0 0.0 0.00 0.00 0.00 74 1023.0
20190324011907 40 0 0.0 0.0 0.00 0.00 0.00 74 1023.1
20190324011807 40 0 0.0 0.0 0.00 0.00 0.00 74 1023.0
20190324011707 40 0 0.0 0.0 0.00 0.00 0.00 74 1023.0
20190324011607 40 0 0.0 0.0 0.00 0.00 0.00 74 1023.1
20190324011507 40 192 0.0 0.0 0.00 0.00 0.00 74 1024.8
20190324011407 41 0 0.0 0.0 0.00 0.00 0.00 74 1023.1
20190324011307 41 0 0.0 0.0 0.00 0.00 0.00 73 1023.1
20190324011207 41 0 0.0 0.0 0.00 0.00 0.00 73 1023.1
20190324011107 41 0 0.0 0.0 0.00 0.00 0.00 73 1023.1
20190324011007 41 0 0.0 0.0 0.00 0.00 0.00 73 1023.1
20190324010907 41 0 0.0 0.0 0.00 0.00 0.00 73 1023.1
20190324010808 41 0 0.0 0.0 0.00 0.00 0.00 73 1023.1
20190324010708 41 0 0.0 0.0 0.00 0.00 0.00 73 1023.1
20190324010610 41 0 0.0 0.0 0.00 0.00 0.00 72 1023.1
20190324010507 41 0 0.0 0.0 0.00 0.00 0.00 72 1023.1
20190324010407 41 0 0.0 0.0 0.00 0.00 0.00 71 1023.1
20190324010308 41 0 0.0 0.0 0.00 0.00 0.00 71 1023.1
20190324010208 42 0 0.0 0.0 0.00 0.00 0.00 71 1023.1
20190324010107 42 0 0.0 0.0 0.00 0.00 0.00 72 1023.1
20190324010007 42 0 0.0 0.0 0.00 0.00 0.00 72 1023.1
20190324005908 42 0 0.0 0.0 0.00 0.00 0.00 71 1023.1
20190324005807 42 0 0.0 0.0 0.00 0.00 0.00 71 1023.1
20190324005707 42 0 0.0 0.0 0.00 0.00 0.00 71 1023.1
20190324005607 42 0 0.0 0.0 0.00 0.00 0.00 72 1023.1
20190324005507 42 0 0.0 0.0 0.00 0.00 0.00 70 1023.1
20190324005407 42 0 0.0 0.0 0.00 0.00 0.00 70 1023.1
20190324005307 42 0 0.0 0.0 0.00 0.00 0.00 70 1023.1
20190324005207 42 0 0.0 0.0 0.00 0.00 0.00 70 1023.2
20190324005110 43 0 0.0 0.0 0.00 0.00 0.00 69 1023.1
20190324005007 43 0 0.0 0.0 0.00 0.00 0.00 68 1023.1
20190324004908 43 0 0.0 0.0 0.00 0.00 0.00 68 1023.1
20190324004807 43 0 0.0 0.0 0.00 0.00 0.00 68 1023.1
20190324004707 43 0 0.0 0.0 0.00 0.00 0.00 69 1023.2
20190324004607 43 0 0.0 0.0 0.00 0.00 0.00 68 1023.1
20190324004518 43 192 0.0 0.0 0.00 0.00 0.00 69 1024.9
20190324004507 43 0 0.0 0.0 0.00 0.00 0.00 69 1023.2
20190324004408 43 0 0.0 0.0 0.00 0.00 0.00 69 1023.1
20190324004307 44 0 0.0 0.0 0.00 0.00 0.00 67 1023.2
20190324004207 44 0 0.0 0.0 0.00 0.00 0.00 66 1023.2
20190324004107 44 0 0.0 0.0 0.00 0.00 0.00 66 1023.2
20190324004007 44 0 0.0 0.0 0.00 0.00 0.00 66 1023.2
20190324003907 44 0 0.0 0.0 0.00 0.00 0.00 66 1023.3
20190324003807 44 0 0.0 0.0 0.00 0.00 0.00 66 1023.2
20190324003707 44 0 0.0 0.0 0.00 0.00 0.00 66 1023.2
20190324003611 44 0 0.0 0.0 0.00 0.00 0.00 65 1023.2
20190324003507 44 0 0.0 0.0 0.00 0.00 0.00 65 1023.3
20190324003407 44 0 0.0 0.0 0.00 0.00 0.00 65 1023.3
20190324003307 45 0 0.0 0.0 0.00 0.00 0.00 65 1023.2
20190324003207 45 0 0.0 0.0 0.00 0.00 0.00 65 1023.3
20190324003108 45 0 0.0 0.0 0.00 0.00 0.00 64 1023.3
20190324003007 45 0 0.0 0.0 0.00 0.00 0.00 64 1023.2
20190324002907 45 0 0.0 0.0 0.00 0.00 0.00 64 1023.2
20190324002808 45 0 0.0 0.0 0.00 0.00 0.00 64 1023.2
20190324002707 45 0 0.0 0.0 0.00 0.00 0.00 65 1023.3
20190324002607 45 0 0.0 0.0 0.00 0.00 0.00 64 1023.3
20190324002507 46 0 0.0 0.0 0.00 0.00 0.00 64 1023.3
20190324002408 46 0 0.0 0.0 0.00 0.00 0.00 64 1023.3
20190324002307 46 0 0.0 0.0 0.00 0.00 0.00 64 1023.2
20190324002207 46 0 0.0 0.0 0.00 0.00 0.00 64 1023.3
20190324002110 46 0 0.0 0.0 0.00 0.00 0.00 63 1023.3
20190324002007 46 0 0.0 0.0 0.00 0.00 0.00 63 1023.3
20190324001907 46 0 0.0 0.0 0.00 0.00 0.00 63 1023.3
20190324001807 46 0 0.0 0.0 0.00 0.00 0.00 63 1023.3
20190324001707 46 0 0.0 0.0 0.00 0.00 0.00 62 1023.3
20190324001607 46 0 0.0 0.0 0.00 0.00 0.00 62 1023.4
20190324001508 46 192 0.0 0.0 0.00 0.00 0.00 62 1025.1
20190324001407 47 0 0.0 0.0 0.00 0.00 0.00 62 1023.3
20190324001307 47 0 0.0 0.0 0.00 0.00 0.00 62 1023.3
20190324001207 47 0 0.0 0.0 0.00 0.00 0.00 61 1023.3
20190324001108 47 0 0.0 0.0 0.00 0.00 0.00 61 1023.3
20190324001007 47 0 0.0 0.0 0.00 0.00 0.00 61 1023.3
20190324000907 47 0 0.0 0.0 0.00 0.00 0.00 60 1023.2
20190324000808 47 0 0.0 0.0 0.00 0.00 0.00 60 1023.3
20190324000707 47 0 0.0 0.0 0.00 0.00 0.00 60 1023.3
20190324000610 47 0 0.0 0.0 0.00 0.00 0.00 60 1023.3
20190324000507 47 0 0.0 0.0 0.00 0.00 0.00 60 1023.3
20190324000407 47 0 0.0 0.0 0.00 0.00 0.00 60 1023.3
20190324000307 48 0 0.0 0.0 0.00 0.00 0.00 60 1023.3
20190324000207 48 0 0.0 0.0 0.00 0.00 0.00 59 1023.4
20190324000107 48 0 0.0 0.0 0.00 0.00 0.00 59 1023.3
20190324000007 48 0 0.0 0.0 0.00 0.00 0.00 59 1023.3
20190323235907 48 0 0.0 0.0 0.00 0.00 0.00 59 1023.3
20190323235807 48 0 0.0 0.0 0.00 0.00 0.00 59 1023.3
20190323235707 48 0 0.0 0.0 0.00 0.00 0.00 59 1023.3
20190323235607 48 0 0.0 0.0 0.00 0.00 0.00 58 1023.3
20190323235507 48 0 0.0 0.0 0.00 0.00 0.00 58 1023.3
20190323235407 48 0 0.0 0.0 0.00 0.00 0.00 58 1023.3
20190323235307 48 0 0.0 0.0 0.00 0.00 0.00 58 1023.3
20190323235208 48 0 0.0 0.0 0.00 0.00 0.00 58 1023.4
20190323235110 48 0 0.0 0.0 0.00 0.00 0.00 58 1023.3
20190323235008 48 0 0.0 0.0 0.00 0.00 0.00 58 1023.3
20190323234908 48 0 0.0 0.0 0.00 0.00 0.00 58 1023.3
20190323234807 48 0 0.0 0.0 0.00 0.00 0.00 58 1023.3
20190323234707 48 0 0.0 0.0 0.00 0.00 0.00 57 1023.3
20190323234607 48 0 0.0 0.0 0.00 0.00 0.00 57 1023.3
20190323234532 48 160 0.0 0.0 0.00 0.00 0.00 57 1025.0
20190323234508 48 0 0.0 0.0 0.00 0.00 0.00 57 1023.3
20190323234408 48 0 0.0 0.0 0.00 0.00 0.00 57 1023.3
20190323234307 48 0 0.0 0.0 0.00 0.00 0.00 57 1023.3
20190323234208 49 0 0.0 0.0 0.00 0.00 0.00 57 1023.3
20190323234107 49 0 0.0 0.0 0.00 0.00 0.00 57 1023.3
20190323234008 49 0 0.0 0.0 0.00 0.00 0.00 57 1023.3
20190323233908 49 0 0.0 0.0 0.00 0.00 0.00 56 1023.3
20190323233807 49 0 0.0 0.0 0.00 0.00 0.00 56 1023.3
20190323233707 49 0 0.0 0.0 0.00 0.00 0.00 56 1023.3
20190323233609 49 0 0.0 0.0 0.00 0.00 0.00 56 1023.3
20190323233507 49 0 0.0 0.0 0.00 0.00 0.00 56 1023.3
20190323233407 49 0 0.0 0.0 0.00 0.00 0.00 56 1023.2
20190323233307 49 0 0.0 0.0 0.00 0.00 0.00 56 1023.3
20190323233207 49 0 0.0 0.0 0.00 0.00 0.00 55 1023.3
20190323233108 49 0 0.0 0.0 0.00 0.00 0.00 55 1023.3
20190323233007 49 0 0.0 0.0 0.00 0.00 0.00 56 1023.3
20190323232907 49 0 0.0 0.0 0.00 0.00 0.00 56 1023.3
20190323232807 49 0 0.0 0.0 0.00 0.00 0.00 55 1023.2
20190323232707 49 0 0.0 0.0 0.00 0.00 0.00 55 1023.2
20190323232607 49 0 0.0 0.0 0.00 0.00 0.00 55 1023.3
20190323232508 49 0 0.0 0.0 0.00 0.00 0.00 56 1023.2
20190323232407 49 0 0.0 0.0 0.00 0.00 0.00 56 1023.2
20190323232307 49 0 0.0 0.0 0.00 0.00 0.00 56 1023.2
20190323232207 49 0 0.0 0.0 0.00 0.00 0.00 55 1023.2
20190323232110 49 0 0.0 0.0 0.00 0.00 0.00 55 1023.2
20190323232008 49 0 0.0 0.0 0.00 0.00 0.00 55 1023.1
20190323231907 49 0 0.0 0.0 0.00 0.00 0.00 55 1023.2
20190323231807 49 0 0.0 0.0 0.00 0.00 0.00 55 1023.2
20190323231708 50 0 0.0 0.0 0.00 0.00 0.00 55 1023.2
20190323231607 50 0 0.0 0.0 0.00 0.00 0.00 55 1023.2
20190323231507 49 147 0.0 0.0 0.00 0.00 0.00 55 1025.0
20190323231407 50 0 0.0 0.0 0.00 0.00 0.00 54 1023.2
20190323231307 50 0 0.0 0.0 0.00 0.00 0.00 54 1023.2
20190323231208 50 0 0.0 0.0 0.00 0.00 0.00 54 1023.2
20190323231107 50 0 0.0 0.0 0.00 0.00 0.00 54 1023.1
20190323231007 50 0 0.0 0.0 0.00 0.00 0.00 54 1023.1
20190323230907 50 0 0.0 0.0 0.00 0.00 0.00 54 1023.1
20190323230807 50 0 0.0 0.0 0.00 0.00 0.00 54 1023.1
20190323230707 50 0 0.0 0.0 0.00 0.00 0.00 54 1023.2
20190323230610 50 0 0.0 0.0 0.00 0.00 0.00 54 1023.2
20190323230507 50 0 0.0 0.0 0.00 0.00 0.00 54 1023.2
20190323230407 50 0 0.0 0.0 0.00 0.00 0.00 54 1023.1
20190323230307 50 0 0.0 0.0 0.00 0.00 0.00 54 1023.1
20190323230207 50 0 0.0 0.0 0.00 0.00 0.00 54 1023.1
20190323230107 50 0 0.0 0.0 0.00 0.00 0.00 54 1023.1
20190323230007 50 0 0.0 0.0 0.00 0.00 0.00 54 1023.1
20190323225907 50 0 0.0 0.0 0.00 0.00 0.00 54 1023.1
20190323225808 50 0 0.0 0.0 0.00 0.00 0.00 54 1023.1
20190323225707 50 0 0.0 0.0 0.00 0.00 0.00 54 1023.1
20190323225607 50 0 0.0 0.0 0.00 0.00 0.00 54 1023.1
20190323225507 50 0 0.0 0.0 0.00 0.00 0.00 54 1023.1
20190323225407 50 0 0.0 0.0 0.00 0.00 0.00 53 1023.1
20190323225307 50 0 0.0 0.0 0.00 0.00 0.00 54 1023.0
20190323225207 50 0 0.0 0.0 0.00 0.00 0.00 53 1023.1
20190323225110 50 0 0.0 0.0 0.00 0.00 0.00 53 1023.1
20190323225007 50 0 0.0 0.0 0.00 0.00 0.00 53 1023.1
20190323224907 50 0 0.0 0.0 0.00 0.00 0.00 53 1023.1
20190323224807 50 0 0.0 0.0 0.00 0.00 0.00 53 1023.1
20190323224707 50 0 0.0 0.0 0.00 0.00 0.00 53 1023.1
20190323224607 50 0 0.0 0.0 0.00 0.00 0.00 52 1023.1
20190323224508 50 0 0.0 0.0 0.00 0.00 0.00 53 1023.1
20190323224407 50 0 0.0 0.0 0.00 0.00 0.00 52 1023.1
20190323224307 50 0 0.0 0.0 0.00 0.00 0.00 52 1023.1
20190323224207 51 0 0.0 0.0 0.00 0.00 0.00 52 1023.1
20190323224107 51 0 0.0 0.0 0.00 0.00 0.00 52 1023.1
20190323224007 51 0 0.0 0.0 0.00 0.00 0.00 51 1023.1
20190323223907 51 0 0.0 0.0 0.00 0.00 0.00 51 1023.1
20190323223807 51 0 0.0 0.0 0.00 0.00 0.00 51 1023.1
20190323223707 51 0 0.0 0.0 0.00 0.00 0.00 51 1023.1
20190323223611 51 0 0.0 0.0 0.00 0.00 0.00 51 1023.1
20190323223508 51 0 0.0 0.0 0.00 0.00 0.00 50 1023.2
20190323223408 51 0 0.0 0.0 0.00 0.00 0.00 51 1023.2
20190323223307 51 0 0.0 0.0 0.00 0.00 0.00 51 1023.2
20190323223207 51 0 0.0 0.0 0.00 0.00 0.00 50 1023.3
20190323223108 51 0 0.0 0.0 0.00 0.00 0.00 49 1023.3
20190323223007 51 0 0.0 0.0 0.00 0.00 0.00 49 1023.3
20190323222907 51 0 0.0 0.0 0.00 0.00 0.00 49 1023.3
20190323222808 51 0 0.0 0.0 0.00 0.00 0.00 49 1023.3
20190323222707 51 0 0.0 0.0 0.00 0.00 0.00 49 1023.3
20190323222607 52 0 0.0 0.0 0.00 0.00 0.00 50 1023.3
20190323222507 52 0 0.0 0.0 0.00 0.00 0.00 49 1023.3
20190323222406 52 0 0.0 0.0 0.00 0.00 0.00 50 1023.3
20190323222307 52 0 0.0 0.0 0.00 0.00 0.00 50 1023.4
20190323222207 52 0 0.0 0.0 0.00 0.00 0.00 48 1023.3
20190323222110 52 0 0.0 0.0 0.00 0.00 0.00 49 1023.3
20190323222007 52 0 0.0 0.0 0.00 0.00 0.00 49 1023.3
20190323221907 52 0 0.0 0.0 0.00 0.00 0.00 50 1023.4
20190323221807 52 0 0.0 0.0 0.00 0.00 0.00 50 1023.4
20190323221707 52 0 0.0 0.0 0.00 0.00 0.00 49 1023.4
20190323221607 52 0 0.0 0.0 0.00 0.00 0.00 49 1023.4
20190323221514 51 160 0.0 0.0 0.00 0.00 0.00 49 1025.1
20190323221507 52 0 0.0 0.0 0.00 0.00 0.00 49 1023.4
20190323221407 52 0 0.0 0.0 0.00 0.00 0.00 49 1023.4
20190323221307 52 0 0.0 0.0 0.00 0.00 0.00 49 1023.4
20190323221207 52 0 0.0 0.0 0.00 0.00 0.00 50 1023.4
20190323221107 52 0 0.0 0.0 0.00 0.00 0.00 49 1023.4
20190323221007 52 0 0.0 0.0 0.00 0.00 0.00 49 1023.4
20190323220907 52 0 0.0 0.0 0.00 0.00 0.00 48 1023.4
20190323220807 52 0 0.0 0.0 0.00 0.00 0.00 48 1023.4
20190323220707 52 0 0.0 0.0 0.00 0.00 0.00 48 1023.3
20190323220610 52 0 0.0 0.0 0.00 0.00 0.00 48 1023.3
20190323220508 52 0 0.0 0.0 0.00 0.00 0.00 48 1023.4
20190323220408 52 0 0.0 0.0 0.00 0.00 0.00 48 1023.4
20190323220307 52 0 0.0 0.0 0.00 0.00 0.00 48 1023.4
20190323220207 52 0 0.0 0.0 0.00 0.00 0.00 48 1023.4
20190323220108 52 0 0.0 0.0 0.00 0.00 0.00 48 1023.5
20190323220007 52 0 0.0 0.0 0.00 0.00 0.00 49 1023.5
20190323215907 52 0 0.0 0.0 0.00 0.00 0.00 48 1023.4
20190323215807 52 0 0.0 0.0 0.00 0.00 0.00 48 1023.5
20190323215707 52 0 0.0 0.0 0.00 0.00 0.00 48 1023.5
20190323215607 53 0 0.0 0.0 0.00 0.00 0.00 49 1023.5
20190323215507 53 0 0.0 0.0 0.00 0.00 0.00 47 1023.5
20190323215407 53 0 0.0 0.0 0.00 0.00 0.00 47 1023.5
20190323215307 53 0 0.0 0.0 0.00 0.00 0.00 48 1023.5
20190323215207 53 0 0.0 0.0 0.00 0.00 0.00 47 1023.5
20190323215110 53 0 0.0 0.0 0.00 0.00 0.00 47 1023.5
20190323215007 53 0 0.0 0.0 0.00 0.00 0.00 47 1023.5
20190323214907 53 0 0.0 0.0 0.00 0.00 0.00 47 1023.5
20190323214807 53 0 0.0 0.0 0.00 0.00 0.00 48 1023.5
20190323214708 53 0 0.0 0.0 0.00 0.00 0.00 47 1023.6
20190323214607 53 0 0.0 0.0 0.00 0.00 0.00 47 1023.6
20190323214526 53 114 0.0 0.0 0.00 0.00 0.00 48 1025.4
20190323214507 53 0 0.0 0.0 0.00 0.00 0.00 48 1023.6
20190323214407 53 0 0.0 0.0 0.00 0.00 0.00 47 1023.6
20190323214307 53 0 0.0 0.0 0.00 0.00 0.00 47 1023.6
20190323214207 53 0 0.0 0.0 0.00 0.00 0.00 48 1023.6
20190323214107 53 0 0.0 0.0 0.00 0.00 0.00 47 1023.6
20190323214007 53 0 0.0 0.0 0.00 0.00 0.00 48 1023.6
20190323213907 53 0 0.0 0.0 0.00 0.00 0.00 48 1023.6
20190323213807 53 0 0.0 0.0 0.00 0.00 0.00 48 1023.6
20190323213707 53 0 0.0 0.0 0.00 0.00 0.00 46 1023.6
20190323213610 53 0 0.0 0.0 0.00 0.00 0.00 47 1023.6
20190323213508 53 0 0.0 0.0 0.00 0.00 0.00 46 1023.6
20190323213407 53 0 0.0 0.0 0.00 0.00 0.00 47 1023.6
20190323213307 53 0 0.0 0.0 0.00 0.00 0.00 46 1023.6
20190323213207 53 0 0.0 0.0 0.00 0.00 0.00 46 1023.6
20190323213108 53 0 0.0 0.0 0.00 0.00 0.00 47 1023.7
20190323213007 53 0 0.0 0.0 0.00 0.00 0.00 47 1023.6
20190323212907 53 0 0.0 0.0 0.00 0.00 0.00 47 1023.6
20190323212807 53 0 0.0 0.0 0.00 0.00 0.00 47 1023.7
20190323212707 53 0 0.0 0.0 0.00 0.00 0.00 47 1023.7
20190323212607 53 0 0.0 0.0 0.00 0.00 0.00 48 1023.7
20190323212507 53 0 0.0 0.0 0.00 0.00 0.00 47 1023.6
20190323212407 53 0 0.0 0.0 0.00 0.00 0.00 45 1023.6
20190323212307 53 0 0.0 0.0 0.00 0.00 0.00 45 1023.7
20190323212207 53 0 0.0 0.0 0.00 0.00 0.00 45 1023.7
20190323212111 53 0 0.0 0.0 0.00 0.00 0.00 45 1023.7
20190323212007 53 0 0.0 0.0 0.00 0.00 0.00 45 1023.7
20190323211907 53 0 0.0 0.0 0.00 0.00 0.00 45 1023.7
20190323211807 53 0 0.0 0.0 0.00 0.00 0.00 48 1023.7
20190323211708 53 0 0.0 0.0 0.00 0.00 0.00 46 1023.7
20190323211607 53 0 0.0 0.0 0.00 0.00 0.00 47 1023.7
20190323211509 53 150 0.0 0.0 0.00 0.00 0.00 47 1025.5
20190323211507 53 0 0.0 0.0 0.00 0.00 0.00 47 1023.7
20190323211407 53 0 0.0 0.0 0.00 0.00 0.00 47 1023.7
20190323211307 53 0 0.0 0.0 0.00 0.00 0.00 46 1023.7
20190323211207 53 0 0.0 0.0 0.00 0.00 0.00 46 1023.7
20190323211107 53 0 0.0 0.0 0.00 0.00 0.00 46 1023.7
20190323211007 53 0 0.0 0.0 0.00 0.00 0.00 46 1023.7
20190323210906 53 0 0.0 0.0 0.00 0.00 0.00 47 1023.7
20190323210806 53 0 0.0 0.0 0.00 0.00 0.00 46 1023.7
20190323210707 54 0 0.0 0.0 0.00 0.00 0.00 46 1023.7
20190323210610 54 0 0.0 0.0 0.00 0.00 0.00 47 1023.7
20190323210507 54 0 0.0 0.0 0.00 0.00 0.00 48 1023.7
20190323210407 54 0 0.0 0.0 0.00 0.00 0.00 47 1023.7
20190323210307 53 0 0.0 0.0 0.00 0.00 0.00 48 1023.7
20190323210207 53 0 0.0 0.0 0.00 0.00 0.00 47 1023.7
20190323210107 53 0 0.0 0.0 0.00 0.00 0.00 48 1023.7
20190323210007 53 0 0.0 0.0 0.00 0.00 0.00 47 1023.7
20190323205907 53 0 0.0 0.0 0.00 0.00 0.00 47 1023.6
20190323205807 53 0 0.0 0.0 0.00 0.00 0.00 48 1023.7
20190323205707 53 0 0.0 0.0 0.00 0.00 0.00 48 1023.7
20190323205607 53 0 0.0 0.0 0.00 0.00 0.00 48 1023.7
20190323205507 53 0 0.0 0.0 0.00 0.00 0.00 47 1023.7
20190323205407 53 0 0.0 0.0 0.00 0.00 0.00 48 1023.6
20190323205307 53 0 0.0 0.0 0.00 0.00 0.00 48 1023.7
20190323205207 53 0 0.0 0.0 0.00 0.00 0.00 47 1023.7
20190323205110 53 0 0.0 0.0 0.00 0.00 0.00 47 1023.7
20190323205007 53 0 0.0 0.0 0.00 0.00 0.00 47 1023.7
20190323204908 53 0 0.0 0.0 0.00 0.00 0.00 47 1023.8
20190323204807 53 0 0.0 0.0 0.00 0.00 0.00 47 1023.8
20190323204707 53 0 0.0 0.0 0.00 0.00 0.00 47 1023.8
20190323204610 53 0 0.0 0.0 0.00 0.00 0.00 47 1023.8
20190323204524 52 155 0.0 0.0 0.00 0.00 0.00 48 1025.6
20190323204506 53 0 0.0 0.0 0.00 0.00 0.00 48 1023.8
20190323204406 53 0 0.0 0.0 0.00 0.00 0.00 48 1023.8
20190323204307 53 0 0.0 0.0 0.00 0.00 0.00 48 1023.8
20190323204207 53 0 0.0 0.0 0.00 0.00 0.00 47 1023.8
20190323204107 53 0 0.0 0.0 0.00 0.00 0.00 46 1023.8
20190323204007 53 0 0.0 0.0 0.00 0.00 0.00 47 1023.8
20190323203907 53 0 0.0 0.0 0.00 0.00 0.00 47 1023.8
20190323203807 53 0 0.0 0.0 0.00 0.00 0.00 47 1023.8
20190323203708 53 0 0.0 0.0 0.00 0.00 0.00 46 1023.9
20190323203609 53 0 0.0 0.0 0.00 0.00 0.00 47 1023.9
20190323203507 53 0 0.0 0.0 0.00 0.00 0.00 47 1023.8
20190323203407 53 0 0.0 0.0 0.00 0.00 0.00 47 1023.9
20190323203307 53 0 0.0 0.0 0.00 0.00 0.00 46 1023.9
20190323203207 53 0 0.0 0.0 0.00 0.00 0.00 47 1023.9
20190323203106 53 0 0.0 0.0 0.00 0.00 0.00 47 1023.9
20190323203006 52 0 0.0 0.0 0.00 0.00 0.00 47 1023.9
20190323202907 52 0 0.0 0.0 0.00 0.00 0.00 47 1024.0
20190323202807 52 0 0.0 0.0 0.00 0.00 0.00 49 1024.0
20190323202707 52 0 0.0 0.0 0.00 0.00 0.00 47 1023.9
20190323202606 53 0 0.0 0.0 0.00 0.00 0.00 46 1024.0
20190323202507 53 0 0.0 0.0 0.00 0.00 0.00 47 1024.0
20190323202407 53 0 0.0 0.0 0.00 0.00 0.00 46 1024.0
20190323202307 53 0 0.0 0.0 0.00 0.00 0.00 46 1023.9
20190323202207 53 0 0.0 0.0 0.00 0.00 0.00 46 1024.0
20190323202110 53 0 0.0 0.0 0.00 0.00 0.00 46 1024.1
20190323202007 53 0 0.0 0.0 0.00 0.00 0.00 46 1024.1
20190323201907 53 0 0.0 0.0 0.00 0.00 0.00 47 1024.2
20190323201807 53 0 0.0 0.0 0.00 0.00 0.00 46 1024.2
20190323201707 53 0 0.0 0.0 0.00 0.00 0.00 47 1024.2
20190323201607 53 0 0.0 0.0 0.00 0.00 0.00 49 1024.1
20190323201530 53 244 0.0 0.0 0.00 0.00 0.00 48 1025.9
20190323201507 53 0 0.0 0.0 0.00 0.00 0.00 48 1024.1
20190323201407 53 0 0.0 0.0 0.00 0.00 0.00 47 1024.1
20190323201307 53 0 0.0 0.0 0.00 0.00 0.00 47 1024.1
20190323201207 53 0 0.0 0.0 0.00 0.00 0.00 47 1024.1
20190323201107 53 0 0.0 0.0 0.00 0.00 0.00 46 1024.1
20190323201007 53 0 0.0 0.0 0.00 0.00 0.00 45 1024.2
20190323200906 53 0 0.0 0.0 0.00 0.00 0.00 46 1024.1
20190323200807 53 0 0.0 0.0 0.00 0.00 0.00 45 1024.2
20190323200707 53 0 0.0 0.0 0.00 0.00 0.00 47 1024.2
20190323200610 53 0 0.0 0.0 0.00 0.00 0.00 46 1024.2
20190323200507 53 0 0.0 0.0 0.00 0.00 0.00 47 1024.3
20190323200406 53 0 0.0 0.0 0.00 0.00 0.00 47 1024.3
20190323200306 53 0 0.0 0.0 0.00 0.00 0.00 45 1024.3
20190323200207 53 0 0.0 0.0 0.00 0.00 0.00 46 1024.3
20190323200107 53 0 0.0 0.0 0.00 0.00 0.00 47 1024.3
20190323200007 53 0 0.0 0.0 0.00 0.00 0.00 47 1024.3
20190323195907 53 0 0.0 0.0 0.00 0.00 0.00 48 1024.3
20190323195807 53 0 0.0 0.0 0.00 0.00 0.00 47 1024.3
20190323195707 53 0 0.0 0.0 0.00 0.00 0.00 48 1024.4
20190323195607 53 0 0.0 0.0 0.00 0.00 0.00 46 1024.4
20190323195506 53 0 0.0 0.0 0.00 0.00 0.00 47 1024.4
20190323195407 53 0 0.0 0.0 0.00 0.00 0.00 47 1024.4
20190323195307 53 0 0.0 0.0 0.00 0.00 0.00 48 1024.4
20190323195207 53 0 0.0 0.0 0.00 0.00 0.00 46 1024.4
20190323195110 53 0 0.0 0.0 0.00 0.00 0.00 47 1024.5
20190323195007 52 0 0.0 0.0 0.00 0.00 0.00 47 1024.5
20190323194907 52 0 0.0 0.0 0.00 0.00 0.00 47 1024.5
20190323194807 52 0 0.0 0.0 0.00 0.00 0.00 49 1024.5
20190323194706 52 0 0.0 0.0 0.00 0.00 0.00 48 1024.6
20190323194607 52 0 0.0 0.0 0.00 0.00 0.00 47 1024.5
20190323194517 52 234 0.0 0.0 0.00 0.00 0.00 48 1026.2
20190323194508 52 302 0.0 2.0 0.00 0.00 0.00 48 1024.5
20190323194407 52 302 0.0 2.0 0.00 0.00 0.00 46 1024.5
20190323194307 52 302 0.0 2.0 0.00 0.00 0.00 47 1024.5
20190323194207 52 233 0.0 2.0 0.00 0.00 0.00 46 1024.5
20190323194107 52 110 0.0 4.0 0.00 0.00 0.00 47 1024.6
20190323194007 52 223 0.0 4.0 0.00 0.00 0.00 47 1024.6
20190323193906 52 225 0.0 4.0 0.00 0.00 0.00 46 1024.5
20190323193807 52 285 0.0 4.0 0.00 0.00 0.00 47 1024.5
20190323193707 52 285 0.0 4.0 0.00 0.00 0.00 46 1024.6
20190323193610 52 285 0.0 4.0 0.00 0.00 0.00 46 1024.6
20190323193507 52 284 0.0 4.0 0.00 0.00 0.00 48 1024.6
20190323193407 52 284 0.0 4.0 0.00 0.00 0.00 47 1024.7
20190323193307 52 284 0.0 4.0 0.00 0.00 0.00 49 1024.7
20190323193207 52 285 0.0 4.0 0.00 0.00 0.00 47 1024.7
20190323193107 52 281 1.0 12.0 0.00 0.00 0.00 48 1024.7
20190323193006 52 293 1.0 12.0 0.00 0.00 0.00 49 1024.7
20190323192907 52 293 1.0 12.0 0.00 0.00 0.00 50 1024.7
20190323192807 52 280 1.0 12.0 0.00 0.00 0.00 47 1024.8
20190323192707 52 280 1.0 12.0 0.00 0.00 0.00 48 1024.7
20190323192607 52 276 1.0 12.0 0.00 0.00 0.00 47 1024.8
20190323192506 52 265 1.0 12.0 0.00 0.00 0.00 48 1024.8
20190323192406 52 264 1.0 12.0 0.00 0.00 0.00 48 1024.8
20190323192307 52 264 1.0 12.0 0.00 0.00 0.00 48 1024.8
20190323192207 52 264 1.0 12.0 0.00 0.00 0.00 47 1024.8
20190323192110 52 234 1.0 8.0 0.00 0.00 0.00 48 1024.9
20190323192008 52 235 1.0 8.0 0.00 0.00 0.00 47 1024.9
20190323191907 52 235 1.0 8.0 0.00 0.00 0.00 47 1025.0
20190323191807 52 235 1.0 8.0 0.00 0.00 0.00 50 1025.0
20190323191707 52 235 1.0 8.0 0.00 0.00 0.00 49 1025.0
20190323191607 52 247 1.0 8.0 0.00 0.00 0.00 48 1025.0
20190323191512 51 271 1.0 6.0 0.00 0.00 0.00 46 1026.8
20190323191508 52 260 0.0 8.0 0.00 0.00 0.00 46 1025.0
20190323191407 52 247 0.0 8.0 0.00 0.00 0.00 46 1025.0
20190323191307 52 288 0.0 4.0 0.00 0.00 0.00 47 1024.9
20190323191207 52 293 0.0 4.0 0.00 0.00 0.00 47 1025.0
20190323191106 52 285 0.0 4.0 0.00 0.00 0.00 47 1025.0
20190323191007 52 273 1.0 6.0 0.00 0.00 0.00 47 1024.9
20190323190907 52 273 1.0 6.0 0.00 0.00 0.00 47 1024.9
20190323190807 52 273 1.0 6.0 0.00 0.00 0.00 47 1025.0
20190323190707 52 273 1.0 6.0 0.00 0.00 0.00 48 1025.0
20190323190610 51 278 1.0 6.0 0.00 0.00 0.00 49 1025.0
20190323190507 51 282 1.0 6.0 0.00 0.00 0.00 48 1025.0
20190323190407 51 282 1.0 6.0 0.00 0.00 0.00 48 1025.0
20190323190306 51 276 1.0 6.0 0.00 0.00 0.00 47 1025.0
20190323190207 51 273 1.0 6.0 0.00 0.00 0.00 48 1025.0
20190323190108 51 277 1.0 6.0 0.00 0.00 0.00 48 1025.0
20190323190007 51 303 0.0 6.0 0.00 0.00 0.00 48 1025.0
20190323185907 51 303 0.0 8.0 0.00 0.00 0.00 47 1025.1
20190323185806 51 278 0.0 9.0 0.00 0.00 0.00 48 1025.0
20190323185707 51 278 0.0 9.0 0.00 0.00 0.00 48 1025.0
20190323185607 51 260 0.0 9.0 0.00 0.00 0.00 47 1025.1
20190323185507 51 246 0.0 9.0 0.00 0.00 0.00 47 1025.1
20190323185406 52 238 0.0 9.0 0.00 0.00 0.00 48 1025.1
20190323185307 52 259 1.0 9.0 0.00 0.00 0.00 49 1025.2
20190323185207 52 240 1.0 9.0 0.00 0.00 0.00 48 1025.2
20190323185110 52 239 1.0 9.0 0.00 0.00 0.00 48 1025.2
20190323185007 52 238 1.0 9.0 0.00 0.00 0.00 48 1025.2
20190323184907 52 244 1.0 9.0 0.00 0.00 0.00 48 1025.3
20190323184807 52 219 1.0 9.0 0.00 0.00 0.00 48 1025.3
20190323184707 52 219 1.0 9.0 0.00 0.00 0.00 48 1025.3
20190323184606 52 219 1.0 9.0 0.00 0.00 0.00 49 1025.4
20190323184556 51 220 1.0 5.0 0.00 0.00 0.00 50 1027.1
20190323184507 51 220 1.0 9.0 0.00 0.00 0.00 50 1025.3
20190323184407 51 222 1.0 9.0 0.00 0.00 0.00 48 1025.4
20190323184307 51 201 1.0 9.0 0.00 0.00 0.00 50 1025.4
20190323184207 51 170 0.0 9.0 0.00 0.00 0.00 49 1025.4
20190323184107 51 164 0.0 9.0 0.00 0.00 0.00 48 1025.4
20190323184007 51 162 0.0 9.0 0.00 0.00 0.00 48 1025.4
20190323183907 51 152 0.0 9.0 0.00 0.00 0.00 50 1025.4
20190323183807 51 0 0.0 0.0 0.00 0.00 0.00 48 1025.4
20190323183706 51 0 0.0 0.0 0.00 0.00 0.00 48 1025.4
20190323183610 51 0 0.0 0.0 0.00 0.00 0.00 48 1025.4
20190323183507 51 0 0.0 0.0 0.00 0.00 0.00 49 1025.4
20190323183407 51 0 0.0 0.0 0.00 0.00 0.00 50 1025.5
20190323183306 51 0 0.0 0.0 0.00 0.00 0.00 49 1025.4
20190323183207 51 0 0.0 0.0 0.00 0.00 0.00 48 1025.4
20190323183107 51 0 0.0 0.0 0.00 0.00 0.00 48 1025.4
20190323183007 51 0 0.0 0.0 0.00 0.00 0.00 48 1025.5
20190323182907 51 0 0.0 0.0 0.00 0.00 0.00 47 1025.5
20190323182806 51 0 0.0 0.0 0.00 0.00 0.00 46 1025.5
20190323182707 52 0 0.0 0.0 0.00 0.00 0.00 47 1025.6
20190323182607 52 0 0.0 0.0 0.00 0.00 0.00 47 1025.6
20190323182507 52 0 0.0 0.0 0.00 0.00 0.00 48 1025.6
20190323182407 52 0 0.0 0.0 0.00 0.00 0.00 49 1025.6
20190323182306 52 0 0.0 0.0 0.00 0.00 0.00 47 1025.6
20190323182207 51 0 0.0 0.0 0.00 0.00 0.00 47 1025.7
20190323182110 52 0 0.0 0.0 0.00 0.00 0.00 49 1025.6
20190323182006 51 0 0.0 0.0 0.00 0.00 0.00 48 1025.7
20190323181906 51 0 0.0 0.0 0.00 0.00 0.00 49 1025.7
20190323181807 51 0 0.0 0.0 0.00 0.00 0.00 48 1025.6
20190323181707 51 0 0.0 0.0 0.00 0.00 0.00 49 1025.7
20190323181606 51 0 0.0 0.0 0.00 0.00 0.00 49 1025.6
20190323181515 51 176 0.0 0.0 0.00 0.00 0.00 50 1027.4
20190323181506 51 0 0.0 0.0 0.00 0.00 0.00 50 1025.6
20190323181407 51 0 0.0 0.0 0.00 0.00 0.00 48 1025.6
20190323181307 51 0 0.0 0.0 0.00 0.00 0.00 49 1025.6
20190323181207 51 0 0.0 0.0 0.00 0.00 0.00 49 1025.7
20190323181107 51 0 0.0 0.0 0.00 0.00 0.00 49 1025.7
20190323181006 51 0 0.0 0.0 0.00 0.00 0.00 49 1025.7
20190323180907 51 0 0.0 0.0 0.00 0.00 0.00 50 1025.7
20190323180806 51 0 0.0 0.0 0.00 0.00 0.00 49 1025.7
20190323180706 51 0 0.0 0.0 0.00 0.00 0.00 48 1025.8
20190323180610 51 0 0.0 0.0 0.00 0.00 0.00 50 1025.8
20190323180507 50 0 0.0 0.0 0.00 0.00 0.00 50 1025.8
20190323180407 50 0 0.0 0.0 0.00 0.00 0.00 49 1025.8
20190323180306 50 0 0.0 0.0 0.00 0.00 0.00 49 1025.9
20190323180207 50 0 0.0 0.0 0.00 0.00 0.00 51 1025.9
20190323180107 50 0 0.0 0.0 0.00 0.00 0.00 51 1025.9
20190323180007 50 0 0.0 0.0 0.00 0.00 0.00 50 1025.9
20190323175907 50 0 0.0 0.0 0.00 0.00 0.00 49 1025.8
20190323175807 50 0 0.0 0.0 0.00 0.00 0.00 50 1025.9
20190323175707 50 0 0.0 0.0 0.00 0.00 0.00 49 1025.9
20190323175607 50 0 0.0 0.0 0.00 0.00 0.00 50 1025.8
20190323175506 50 0 0.0 0.0 0.00 0.00 0.00 50 1025.9
20190323175407 50 0 0.0 0.0 0.00 0.00 0.00 50 1026.0
20190323175307 50 0 0.0 0.0 0.00 0.00 0.00 51 1025.9
20190323175207 50 0 0.0 0.0 0.00 0.00 0.00 48 1025.9
20190323175110 50 0 0.0 0.0 0.00 0.00 0.00 49 1025.9
20190323175006 50 0 0.0 0.0 0.00 0.00 0.00 49 1025.9
20190323174907 50 0 0.0 0.0 0.00 0.00 0.00 49 1025.9
20190323174807 50 0 0.0 0.0 0.00 0.00 0.00 51 1025.8
20190323174706 50 0 0.0 0.0 0.00 0.00 0.00 52 1025.9
20190323174607 50 0 0.0 0.0 0.00 0.00 0.00 52 1025.9
20190323174511 49 184 0.0 0.0 0.00 0.00 0.00 52 1027.7
20190323174506 50 0 0.0 0.0 0.00 0.00 0.00 52 1026.0
20190323174407 50 0 0.0 0.0 0.00 0.00 0.00 52 1026.0
20190323174307 50 0 0.0 0.0 0.00 0.00 0.00 52 1026.0
20190323174207 50 0 0.0 0.0 0.00 0.00 0.00 52 1026.0
20190323174107 50 0 0.0 0.0 0.00 0.00 0.00 51 1026.1
20190323174007 50 0 0.0 0.0 0.00 0.00 0.00 51 1026.1
20190323173907 50 0 0.0 0.0 0.00 0.00 0.00 50 1026.1
20190323173807 50 0 0.0 0.0 0.00 0.00 0.00 50 1026.1
20190323173706 50 0 0.0 0.0 0.00 0.00 0.00 51 1026.1
20190323173610 50 0 0.0 0.0 0.00 0.00 0.00 52 1026.1
20190323173507 50 0 0.0 0.0 0.00 0.00 0.00 51 1026.1
20190323173406 50 0 0.0 0.0 0.00 0.00 0.00 50 1026.1
20190323173306 50 122 0.0 4.0 0.00 0.00 0.00 52 1026.1
20190323173206 49 122 0.0 4.0 0.00 0.00 0.00 50 1026.2
20190323173107 49 122 0.0 4.0 0.00 0.00 0.00 51 1026.2
20190323173007 49 122 0.0 4.0 0.00 0.00 0.00 51 1026.2
20190323172906 49 122 0.0 4.0 0.00 0.00 0.00 53 1026.2
20190323172806 49 122 0.0 4.0 0.00 0.00 0.00 53 1026.1
20190323172706 49 122 0.0 4.0 0.00 0.00 0.00 53 1026.1
20190323172607 49 122 0.0 4.0 0.00 0.00 0.00 51 1026.1
20190323172507 49 122 0.0 4.0 0.00 0.00 0.00 52 1026.1
20190323172407 49 122 0.0 4.0 0.00 0.00 0.00 51 1026.1
20190323172306 49 0 0.0 0.0 0.00 0.00 0.00 51 1026.1
20190323172207 49 0 0.0 0.0 0.00 0.00 0.00 50 1026.1
20190323172110 49 0 0.0 0.0 0.00 0.00 0.00 50 1026.1
20190323172007 49 0 0.0 0.0 0.00 0.00 0.00 52 1026.2
20190323171906 49 0 0.0 0.0 0.00 0.00 0.00 53 1026.1
20190323171806 49 0 0.0 0.0 0.00 0.00 0.00 53 1026.1
20190323171706 49 0 0.0 0.0 0.00 0.00 0.00 55 1026.1
20190323171607 49 0 0.0 0.0 0.00 0.00 0.00 53 1026.1
20190323171553 49 196 0.0 0.0 0.00 0.00 0.00 55 1027.9
20190323171508 49 0 0.0 0.0 0.00 0.00 0.00 55 1026.1
20190323171407 49 0 0.0 0.0 0.00 0.00 0.00 53 1026.1
20190323171306 49 0 0.0 0.0 0.00 0.00 0.00 53 1026.2
20190323171207 49 0 0.0 0.0 0.00 0.00 0.00 53 1026.1
20190323171107 49 0 0.0 0.0 0.00 0.00 0.00 53 1026.1
20190323171007 49 0 0.0 0.0 0.00 0.00 0.00 54 1026.1
20190323170906 49 0 0.0 0.0 0.00 0.00 0.00 53 1026.1
20190323170806 49 0 0.0 0.0 0.00 0.00 0.00 54 1026.1
20190323170707 48 0 0.0 0.0 0.00 0.00 0.00 56 1025.9
20190323170610 48 0 0.0 0.0 0.00 0.00 0.00 54 1025.9
20190323170507 48 0 0.0 0.0 0.00 0.00 0.00 54 1026.0
20190323170406 48 0 0.0 0.0 0.00 0.00 0.00 53 1026.0
20190323170307 48 0 0.0 0.0 0.00 0.00 0.00 52 1026.0
20190323170207 48 0 0.0 0.0 0.00 0.00 0.00 53 1026.1
20190323170107 48 0 0.0 0.0 0.00 0.00 0.00 54 1026.1
20190323170007 48 0 0.0 0.0 0.00 0.00 0.00 53 1026.1
20190323165907 48 0 0.0 0.0 0.00 0.00 0.00 53 1026.1
20190323165807 48 0 0.0 0.0 0.00 0.00 0.00 53 1026.1
20190323165706 48 0 0.0 0.0 0.00 0.00 0.00 53 1026.1
20190323165606 48 0 0.0 0.0 0.00 0.00 0.00 54 1026.1
20190323165507 48 186 0.0 8.0 0.00 0.00 0.00 54 1026.2
20190323165407 48 167 0.0 9.0 0.00 0.00 0.00 57 1026.1
20190323165307 48 167 0.0 9.0 0.00 0.00 0.00 54 1026.1
20190323165207 47 167 0.0 9.0 0.00 0.00 0.00 54 1026.2
20190323165109 47 167 0.0 9.0 0.00 0.00 0.00 54 1026.3
20190323165007 47 167 0.0 9.0 0.00 0.00 0.00 54 1026.3
20190323164907 47 167 0.0 9.0 0.00 0.00 0.00 54 1026.4
20190323164807 47 167 0.0 9.0 0.00 0.00 0.00 54 1026.4
20190323164707 47 167 0.0 9.0 0.00 0.00 0.00 54 1026.4
20190323164607 47 167 0.0 9.0 0.00 0.00 0.00 53 1026.4
20190323164510 47 157 0.0 6.0 0.00 0.00 0.00 53 1028.3
20190323164507 47 159 0.0 9.0 0.00 0.00 0.00 53 1026.5
20190323164407 47 0 0.0 0.0 0.00 0.00 0.00 55 1026.4
20190323164306 47 0 0.0 0.0 0.00 0.00 0.00 54 1026.4
20190323164207 47 0 0.0 0.0 0.00 0.00 0.00 54 1026.5
20190323164107 47 0 0.0 0.0 0.00 0.00 0.00 53 1026.5
20190323164007 47 0 0.0 0.0 0.00 0.00 0.00 53 1026.5
20190323163907 47 0 0.0 0.0 0.00 0.00 0.00 54 1026.5
20190323163807 47 0 0.0 0.0 0.00 0.00 0.00 55 1026.6
20190323163706 47 0 0.0 0.0 0.00 0.00 0.00 56 1026.6
20190323163610 47 0 0.0 0.0 0.00 0.00 0.00 55 1026.6
20190323163507 47 0 0.0 0.0 0.00 0.00 0.00 56 1026.6
20190323163407 47 0 0.0 0.0 0.00 0.00 0.00 56 1026.6
20190323163306 47 0 0.0 0.0 0.00 0.00 0.00 58 1026.6
20190323163206 46 0 0.0 0.0 0.00 0.00 0.00 56 1026.6
20190323163107 46 0 0.0 0.0 0.00 0.00 0.00 56 1026.6
20190323163007 46 0 0.0 0.0 0.00 0.00 0.00 55 1026.5
20190323162907 46 0 0.0 0.0 0.00 0.00 0.00 56 1026.6
20190323162807 46 0 0.0 0.0 0.00 0.00 0.00 57 1026.5
20190323162706 46 0 0.0 0.0 0.00 0.00 0.00 53 1026.5
20190323162607 46 0 0.0 0.0 0.00 0.00 0.00 55 1026.6
20190323162507 46 0 0.0 0.0 0.00 0.00 0.00 55 1026.5
20190323162407 46 0 0.0 0.0 0.00 0.00 0.00 55 1026.6
20190323162306 46 0 0.0 0.0 0.00 0.00 0.00 55 1026.6
20190323162206 46 0 0.0 0.0 0.00 0.00 0.00 55 1026.6
20190323162110 46 0 0.0 0.0 0.00 0.00 0.00 56 1026.6
20190323162007 46 0 0.0 0.0 0.00 0.00 0.00 55 1026.7
20190323161907 46 0 0.0 0.0 0.00 0.00 0.00 55 1026.7
20190323161806 46 0 0.0 0.0 0.00 0.00 0.00 55 1026.7
20190323161707 46 0 0.0 0.0 0.00 0.00 0.00 56 1026.7
20190323161607 46 0 0.0 0.0 0.00 0.00 0.00 55 1026.7
20190323161518 46 220 0.0 0.0 0.00 0.00 0.00 56 1028.6
20190323161507 46 0 0.0 0.0 0.00 0.00 0.00 56 1026.7
20190323161407 46 0 0.0 0.0 0.00 0.00 0.00 57 1026.8
20190323161306 46 0 0.0 0.0 0.00 0.00 0.00 56 1026.7
20190323161207 46 0 0.0 0.0 0.00 0.00 0.00 57 1026.8
20190323161107 46 0 0.0 0.0 0.00 0.00 0.00 57 1026.8
20190323161007 46 0 0.0 0.0 0.00 0.00 0.00 57 1026.8
20190323160906 45 0 0.0 0.0 0.00 0.00 0.00 56 1026.8
20190323160807 45 0 0.0 0.0 0.00 0.00 0.00 57 1026.8
20190323160707 45 0 0.0 0.0 0.00 0.00 0.00 58 1026.7
20190323160609 45 0 0.0 0.0 0.00 0.00 0.00 57 1026.7
20190323160507 45 0 0.0 0.0 0.00 0.00 0.00 56 1026.7
20190323160407 45 0 0.0 0.0 0.00 0.00 0.00 57 1026.7
20190323160307 45 0 0.0 0.0 0.00 0.00 0.00 57 1026.7
20190323160207 45 0 0.0 0.0 0.00 0.00 0.00 59 1026.7
20190323160107 44 0 0.0 0.0 0.00 0.00 0.00 57 1026.9
20190323160007 44 0 0.0 0.0 0.00 0.00 0.00 57 1026.9
20190323155907 44 0 0.0 0.0 0.00 0.00 0.00 58 1026.9
20190323155806 44 0 0.0 0.0 0.00 0.00 0.00 58 1027.0
20190323155706 44 0 0.0 0.0 0.00 0.00 0.00 57 1027.0
20190323155606 44 0 0.0 0.0 0.00 0.00 0.00 59 1027.1
20190323155507 44 0 0.0 0.0 0.00 0.00 0.00 60 1027.1
20190323155407 44 0 0.0 0.0 0.00 0.00 0.00 59 1027.1
20190323155307 44 0 0.0 0.0 0.00 0.00 0.00 57 1027.1
20190323155207 44 0 0.0 0.0 0.00 0.00 0.00 58 1027.1
20190323155110 44 0 0.0 0.0 0.00 0.00 0.00 57 1027.2
20190323155007 44 0 0.0 0.0 0.00 0.00 0.00 58 1027.2
20190323154906 43 0 0.0 0.0 0.00 0.00 0.00 58 1027.2
20190323154806 43 0 0.0 0.0 0.00 0.00 0.00 58 1027.2
20190323154706 43 0 0.0 0.0 0.00 0.00 0.00 60 1027.2
20190323154607 43 0 0.0 0.0 0.00 0.00 0.00 60 1027.2
20190323154515 42 180 0.0 0.0 0.00 0.00 0.00 58 1029.1
20190323154507 43 0 0.0 0.0 0.00 0.00 0.00 58 1027.2
20190323154407 43 0 0.0 0.0 0.00 0.00 0.00 60 1027.3
20190323154306 43 0 0.0 0.0 0.00 0.00 0.00 60 1027.2
20190323154207 42 0 0.0 0.0 0.00 0.00 0.00 60 1027.2
20190323154107 42 0 0.0 0.0 0.00 0.00 0.00 59 1027.3
20190323154006 42 0 0.0 0.0 0.00 0.00 0.00 59 1027.2
20190323153906 42 0 0.0 0.0 0.00 0.00 0.00 60 1027.2
20190323153806 42 0 0.0 0.0 0.00 0.00 0.00 59 1027.2
20190323153707 42 0 0.0 0.0 0.00 0.00 0.00 58 1027.2
20190323153610 42 0 0.0 0.0 0.00 0.00 0.00 58 1027.2
20190323153507 42 0 0.0 0.0 0.00 0.00 0.00 58 1027.2
20190323153406 42 0 0.0 0.0 0.00 0.00 0.00 60 1027.2
20190323153306 42 0 0.0 0.0 0.00 0.00 0.00 60 1027.3
20190323153207 42 0 0.0 0.0 0.00 0.00 0.00 60 1027.3
20190323153107 42 0 0.0 0.0 0.00 0.00 0.00 62 1027.3
20190323153007 42 0 0.0 0.0 0.00 0.00 0.00 62 1027.3
20190323152906 41 0 0.0 0.0 0.00 0.00 0.00 61 1027.4
20190323152806 41 0 0.0 0.0 0.00 0.00 0.00 62 1027.4
20190323152707 41 0 0.0 0.0 0.00 0.00 0.00 63 1027.3
20190323152607 41 0 0.0 0.0 0.00 0.00 0.00 63 1027.3
20190323152506 41 0 0.0 0.0 0.00 0.00 0.00 63 1027.4
20190323152406 41 0 0.0 0.0 0.00 0.00 0.00 64 1027.4
20190323152307 41 0 0.0 0.0 0.00 0.00 0.00 64 1027.4
20190323152207 41 0 0.0 0.0 0.00 0.00 0.00 66 1027.4
20190323152109 41 0 0.0 0.0 0.00 0.00 0.00 66 1027.5
20190323152006 41 0 0.0 0.0 0.00 0.00 0.00 66 1027.4
20190323151907 40 0 0.0 0.0 0.00 0.00 0.00 67 1027.4
20190323151807 40 0 0.0 0.0 0.00 0.00 0.00 68 1027.4
20190323151706 40 0 0.0 0.0 0.00 0.00 0.00 67 1027.4
20190323151606 40 0 0.0 0.0 0.00 0.00 0.00 67 1027.4
20190323151529 40 267 0.0 0.0 0.00 0.00 0.00 67 1029.3
20190323151507 40 0 0.0 0.0 0.00 0.00 0.00 67 1027.3
20190323151407 40 0 0.0 0.0 0.00 0.00 0.00 68 1027.3
20190323151307 40 0 0.0 0.0 0.00 0.00 0.00 69 1027.3
20190323151206 40 0 0.0 0.0 0.00 0.00 0.00 69 1027.3
20190323151107 40 0 0.0 0.0 0.00 0.00 0.00 70 1027.3
20190323151007 40 0 0.0 0.0 0.00 0.00 0.00 71 1027.4
20190323150906 40 0 0.0 0.0 0.00 0.00 0.00 69 1027.3
20190323150807 40 0 0.0 0.0 0.00 0.00 0.00 70 1027.4
20190323150706 40 0 0.0 0.0 0.00 0.00 0.00 70 1027.4
20190323150610 40 0 0.0 0.0 0.00 0.00 0.00 71 1027.4
20190323150507 39 0 0.0 0.0 0.00 0.00 0.00 71 1027.3
20190323150406 39 0 0.0 0.0 0.00 0.00 0.00 70 1027.3
20190323150306 39 0 0.0 0.0 0.00 0.00 0.00 70 1027.3
20190323150207 39 0 0.0 0.0 0.00 0.00 0.00 71 1027.3
20190323150107 39 0 0.0 0.0 0.00 0.00 0.00 71 1027.2
20190323150007 39 0 0.0 0.0 0.00 0.00 0.00 72 1027.3
20190323145907 39 0 0.0 0.0 0.00 0.00 0.00 71 1027.3
20190323145807 39 0 0.0 0.0 0.00 0.00 0.00 71 1027.3
20190323145707 39 0 0.0 0.0 0.00 0.00 0.00 71 1027.2
20190323145606 39 0 0.0 0.0 0.00 0.00 0.00 72 1027.2
20190323145506 39 0 0.0 0.0 0.00 0.00 0.00 71 1027.2
20190323145406 39 0 0.0 0.0 0.00 0.00 0.00 72 1027.2
20190323145307 39 0 0.0 0.0 0.00 0.00 0.00 71 1027.2
20190323145206 39 0 0.0 0.0 0.00 0.00 0.00 71 1027.2
20190323145109 39 0 0.0 0.0 0.00 0.00 0.00 71 1027.2
20190323145006 38 0 0.0 0.0 0.00 0.00 0.00 70 1027.1
20190323144908 38 0 0.0 0.0 0.00 0.00 0.00 70 1027.1
20190323144807 38 0 0.0 0.0 0.00 0.00 0.00 70 1027.1
20190323144706 38 0 0.0 0.0 0.00 0.00 0.00 69 1027.2
20190323144606 38 0 0.0 0.0 0.00 0.00 0.00 70 1027.1
20190323144513 38 182 0.0 0.0 0.00 0.00 0.00 70 1029.0
20190323144506 38 0 0.0 0.0 0.00 0.00 0.00 70 1027.1
20190323144407 38 0 0.0 0.0 0.00 0.00 0.00 71 1027.1
20190323144307 38 0 0.0 0.0 0.00 0.00 0.00 72 1027.1
20190323144207 38 0 0.0 0.0 0.00 0.00 0.00 73 1027.1
20190323144106 38 0 0.0 0.0 0.00 0.00 0.00 72 1027.1
20190323144006 38 0 0.0 0.0 0.00 0.00 0.00 73 1027.1
20190323143907 38 0 0.0 0.0 0.00 0.00 0.00 74 1027.1
20190323143807 38 0 0.0 0.0 0.00 0.00 0.00 74 1027.0
20190323143706 37 0 0.0 0.0 0.00 0.00 0.00 74 1027.1
20190323143609 37 0 0.0 0.0 0.00 0.00 0.00 73 1027.1
20190323143507 37 0 0.0 0.0 0.00 0.00 0.00 74 1027.1
20190323143407 37 0 0.0 0.0 0.00 0.00 0.00 74 1027.1
20190323143307 37 0 0.0 0.0 0.00 0.00 0.00 75 1027.0
20190323143206 37 0 0.0 0.0 0.00 0.00 0.00 75 1027.0
20190323143106 37 0 0.0 0.0 0.00 0.00 0.00 75 1026.9
20190323143007 36 0 0.0 0.0 0.00 0.00 0.00 76 1026.9
20190323142906 36 0 0.0 0.0 0.00 0.00 0.00 77 1026.9
20190323142806 36 0 0.0 0.0 0.00 0.00 0.00 79 1026.9
20190323142706 36 0 0.0 0.0 0.00 0.00 0.00 79 1026.9
20190323142606 36 0 0.0 0.0 0.00 0.00 0.00 80 1026.9
20190323142507 36 0 0.0 0.0 0.00 0.00 0.00 80 1026.9
20190323142407 36 0 0.0 0.0 0.00 0.00 0.00 81 1026.9
20190323142306 36 0 0.0 0.0 0.00 0.00 0.00 81 1026.9
20190323142206 35 0 0.0 0.0 0.00 0.00 0.00 81 1026.9
20190323142109 35 0 0.0 0.0 0.00 0.00 0.00 82 1026.9
20190323142007 35 0 0.0 0.0 0.00 0.00 0.00 82 1026.9
20190323141907 35 0 0.0 0.0 0.00 0.00 0.00 82 1026.9
20190323141806 35 0 0.0 0.0 0.00 0.00 0.00 83 1026.9
20190323141706 35 0 0.0 0.0 0.00 0.00 0.00 84 1026.9
20190323141606 34 0 0.0 0.0 0.00 0.00 0.00 84 1026.9
20190323141511 34 258 0.0 0.0 0.00 0.00 0.00 85 1028.8
20190323141507 34 0 0.0 0.0 0.00 0.00 0.00 85 1026.9
20190323141406 34 0 0.0 0.0 0.00 0.00 0.00 86 1026.8
20190323141307 34 0 0.0 0.0 0.00 0.00 0.00 86 1026.9
20190323141206 34 0 0.0 0.0 0.00 0.00 0.00 87 1026.9
20190323141106 34 0 0.0 0.0 0.00 0.00 0.00 87 1026.9
20190323141007 33 0 0.0 0.0 0.00 0.00 0.00 88 1026.9
20190323140906 33 0 0.0 0.0 0.00 0.00 0.00 88 1026.9
20190323140807 33 0 0.0 0.0 0.00 0.00 0.00 88 1026.9
20190323140706 33 0 0.0 0.0 0.00 0.00 0.00 89 1026.9
20190323140610 33 0 0.0 0.0 0.00 0.00 0.00 90 1026.9
20190323140507 32 0 0.0 0.0 0.00 0.00 0.00 91 1026.9
20190323140406 32 0 0.0 0.0 0.00 0.00 0.00 92 1026.9
20190323140306 32 0 0.0 0.0 0.00 0.00 0.00 92 1026.9
20190323140206 32 0 0.0 0.0 0.00 0.00 0.00 94 1026.9
20190323140107 32 0 0.0 0.0 0.00 0.00 0.00 95 1026.9
20190323140006 32 0 0.0 0.0 0.00 0.00 0.00 95 1026.9
20190323135906 32 0 0.0 0.0 0.00 0.00 0.00 97 1026.9
20190323135806 31 0 0.0 0.0 0.00 0.00 0.00 97 1026.9
20190323135706 31 0 0.0 0.0 0.00 0.00 0.00 97 1026.9
20190323135607 31 0 0.0 0.0 0.00 0.00 0.00 97 1026.9
20190323135507 31 0 0.0 0.0 0.00 0.00 0.00 97 1026.9
20190323135406 31 0 0.0 0.0 0.00 0.00 0.00 97 1026.9
20190323135306 30 0 0.0 0.0 0.00 0.00 0.00 97 1026.8
20190323135206 30 0 0.0 0.0 0.00 0.00 0.00 97 1026.9
20190323135110 30 0 0.0 0.0 0.00 0.00 0.00 97 1026.9
20190323135006 30 0 0.0 0.0 0.00 0.00 0.00 97 1026.9
20190323134906 30 0 0.0 0.0 0.00 0.00 0.00 97 1026.9
20190323134807 30 0 0.0 0.0 0.00 0.00 0.00 97 1026.9
20190323134707 29 0 0.0 0.0 0.00 0.00 0.00 97 1026.9
20190323134607 29 0 0.0 0.0 0.00 0.00 0.00 97 1026.9
20190323134508 28 285 0.0 0.0 0.00 0.00 0.00 97 1028.8
20190323134406 29 0 0.0 0.0 0.00 0.00 0.00 97 1026.9
20190323134306 28 0 0.0 0.0 0.00 0.00 0.00 97 1026.8
20190323134207 28 0 0.0 0.0 0.00 0.00 0.00 97 1026.8
20190323134107 28 0 0.0 0.0 0.00 0.00 0.00 97 1026.8
20190323134007 28 0 0.0 0.0 0.00 0.00 0.00 97 1026.8
20190323133906 28 0 0.0 0.0 0.00 0.00 0.00 97 1026.9
20190323133806 28 0 0.0 0.0 0.00 0.00 0.00 97 1026.9
20190323133707 27 0 0.0 0.0 0.00 0.00 0.00 97 1026.8
20190323133609 27 0 0.0 0.0 0.00 0.00 0.00 97 1026.8
20190323133506 27 0 0.0 0.0 0.00 0.00 0.00 97 1026.8
20190323133406 27 0 0.0 0.0 0.00 0.00 0.00 97 1026.8
20190323133306 27 0 0.0 0.0 0.00 0.00 0.00 97 1026.9
20190323133207 26 0 0.0 0.0 0.00 0.00 0.00 97 1026.9
20190323133106 26 0 0.0 0.0 0.00 0.00 0.00 97 1026.9
20190323133006 26 0 0.0 0.0 0.00 0.00 0.00 97 1026.8
20190323132906 26 0 0.0 0.0 0.00 0.00 0.00 97 1026.8
20190323132806 26 0 0.0 0.0 0.00 0.00 0.00 96 1026.8
20190323132707 26 0 0.0 0.0 0.00 0.00 0.00 96 1026.8
20190323132606 26 0 0.0 0.0 0.00 0.00 0.00 96 1026.8
20190323132506 25 0 0.0 0.0 0.00 0.00 0.00 96 1026.8
20190323132406 25 0 0.0 0.0 0.00 0.00 0.00 96 1026.7
20190323132306 25 0 0.0 0.0 0.00 0.00 0.00 96 1026.7
20190323132207 25 0 0.0 0.0 0.00 0.00 0.00 96 1026.7
20190323132109 25 0 0.0 0.0 0.00 0.00 0.00 96 1026.7
20190323132006 25 0 0.0 0.0 0.00 0.00 0.00 96 1026.7
20190323131906 25 0 0.0 0.0 0.00 0.00 0.00 96 1026.6
20190323131807 24 0 0.0 0.0 0.00 0.00 0.00 96 1026.6
20190323131706 24 0 0.0 0.0 0.00 0.00 0.00 96 1026.6
20190323131607 24 0 0.0 0.0 0.00 0.00 0.00 96 1026.6
20190323131508 24 155 0.0 0.0 0.00 0.00 0.00 96 1028.5
20190323131506 24 0 0.0 0.0 0.00 0.00 0.00 96 1026.6
20190323131406 24 0 0.0 0.0 0.00 0.00 0.00 96 1026.6
20190323131307 24 0 0.0 0.0 0.00 0.00 0.00 96 1026.6
20190323131206 24 0 0.0 0.0 0.00 0.00 0.00 96 1026.6
20190323131106 24 0 0.0 0.0 0.00 0.00 0.00 96 1026.6
20190323131006 24 0 0.0 0.0 0.00 0.00 0.00 96 1026.6
20190323130907 24 0 0.0 0.0 0.00 0.00 0.00 96 1026.6
20190323130807 24 0 0.0 0.0 0.00 0.00 0.00 96 1026.6
20190323130706 24 0 0.0 0.0 0.00 0.00 0.00 96 1026.6
20190323130609 23 0 0.0 0.0 0.00 0.00 0.00 95 1026.6
20190323130506 23 0 0.0 0.0 0.00 0.00 0.00 95 1026.5
20190323130407 23 0 0.0 0.0 0.00 0.00 0.00 95 1026.5
20190323130307 23 0 0.0 0.0 0.00 0.00 0.00 95 1026.5
20190323130207 23 0 0.0 0.0 0.00 0.00 0.00 95 1026.5
20190323130106 23 0 0.0 0.0 0.00 0.00 0.00 95 1026.5
20190323130006 23 0 0.0 0.0 0.00 0.00 0.00 95 1026.5
20190323125907 23 0 0.0 0.0 0.00 0.00 0.00 95 1026.6
20190323125807 23 0 0.0 0.0 0.00 0.00 0.00 95 1026.6
20190323125707 23 0 0.0 0.0 0.00 0.00 0.00 95 1026.5
20190323125606 23 0 0.0 0.0 0.00 0.00 0.00 95 1026.5
20190323125507 23 0 0.0 0.0 0.00 0.00 0.00 95 1026.5
20190323125407 23 0 0.0 0.0 0.00 0.00 0.00 95 1026.5
20190323125306 23 0 0.0 0.0 0.00 0.00 0.00 95 1026.5
20190323125206 23 0 0.0 0.0 0.00 0.00 0.00 95 1026.5
20190323125109 23 0 0.0 0.0 0.00 0.00 0.00 95 1026.5
20190323125007 23 0 0.0 0.0 0.00 0.00 0.00 95 1026.5
20190323124906 23 0 0.0 0.0 0.00 0.00 0.00 95 1026.5
20190323124806 23 0 0.0 0.0 0.00 0.00 0.00 95 1026.5
20190323124706 23 0 0.0 0.0 0.00 0.00 0.00 95 1026.5
20190323124606 23 0 0.0 0.0 0.00 0.00 0.00 95 1026.5
20190323124509 22 155 0.0 0.0 0.00 0.00 0.00 95 1028.4
20190323124507 22 0 0.0 0.0 0.00 0.00 0.00 95 1026.5
20190323124407 22 0 0.0 0.0 0.00 0.00 0.00 95 1026.5
20190323124307 22 0 0.0 0.0 0.00 0.00 0.00 95 1026.4
20190323124206 22 0 0.0 0.0 0.00 0.00 0.00 95 1026.5
20190323124106 22 0 0.0 0.0 0.00 0.00 0.00 95 1026.5
20190323124007 22 0 0.0 0.0 0.00 0.00 0.00 95 1026.5
20190323123906 22 0 0.0 0.0 0.00 0.00 0.00 95 1026.5
20190323123806 22 0 0.0 0.0 0.00 0.00 0.00 95 1026.4
20190323123706 22 0 0.0 0.0 0.00 0.00 0.00 95 1026.4
20190323123609 22 0 0.0 0.0 0.00 0.00 0.00 95 1026.4
20190323123507 22 0 0.0 0.0 0.00 0.00 0.00 95 1026.4
20190323123406 22 0 0.0 0.0 0.00 0.00 0.00 95 1026.4
20190323123307 22 0 0.0 0.0 0.00 0.00 0.00 95 1026.3
20190323123206 22 0 0.0 0.0 0.00 0.00 0.00 95 1026.3
20190323123107 22 0 0.0 0.0 0.00 0.00 0.00 95 1026.3
20190323123007 22 0 0.0 0.0 0.00 0.00 0.00 95 1026.3
20190323122906 22 0 0.0 0.0 0.00 0.00 0.00 95 1026.3
20190323122806 22 0 0.0 0.0 0.00 0.00 0.00 94 1026.4
20190323122706 22 0 0.0 0.0 0.00 0.00 0.00 94 1026.3
20190323122607 22 0 0.0 0.0 0.00 0.00 0.00 94 1026.4
20190323122507 22 0 0.0 0.0 0.00 0.00 0.00 94 1026.4
20190323122406 22 0 0.0 0.0 0.00 0.00 0.00 94 1026.4
20190323122306 22 0 0.0 0.0 0.00 0.00 0.00 94 1026.4
20190323122206 22 0 0.0 0.0 0.00 0.00 0.00 94 1026.4
20190323122110 22 0 0.0 0.0 0.00 0.00 0.00 94 1026.5
20190323122006 22 0 0.0 0.0 0.00 0.00 0.00 94 1026.5
20190323121906 22 0 0.0 0.0 0.00 0.00 0.00 94 1026.5
20190323121807 22 0 0.0 0.0 0.00 0.00 0.00 94 1026.5
20190323121706 22 0 0.0 0.0 0.00 0.00 0.00 94 1026.5
20190323121606 22 0 0.0 0.0 0.00 0.00 0.00 94 1026.5
20190323121546 21 155 0.0 0.0 0.00 0.00 0.00 94 1028.4
20190323121506 22 0 0.0 0.0 0.00 0.00 0.00 94 1026.5
20190323121406 22 0 0.0 0.0 0.00 0.00 0.00 94 1026.4
20190323121307 22 0 0.0 0.0 0.00 0.00 0.00 94 1026.4
20190323121207 22 0 0.0 0.0 0.00 0.00 0.00 94 1026.4
20190323121106 22 0 0.0 0.0 0.00 0.00 0.00 94 1026.4
20190323121006 22 0 0.0 0.0 0.00 0.00 0.00 94 1026.4
20190323120907 22 0 0.0 0.0 0.00 0.00 0.00 94 1026.4
20190323120806 22 0 0.0 0.0 0.00 0.00 0.00 94 1026.4
20190323120706 22 0 0.0 0.0 0.00 0.00 0.00 94 1026.4
20190323120609 22 0 0.0 0.0 0.00 0.00 0.00 94 1026.4
20190323120507 22 0 0.0 0.0 0.00 0.00 0.00 94 1026.5
20190323120407 22 0 0.0 0.0 0.00 0.00 0.00 94 1026.5
20190323120306 22 0 0.0 0.0 0.00 0.00 0.00 94 1026.5
20190323120206 22 0 0.0 0.0 0.00 0.00 0.00 94 1026.5
20190323120106 22 0 0.0 0.0 0.00 0.00 0.00 94 1026.4
20190323120007 22 0 0.0 0.0 0.00 0.00 0.00 94 1026.4
20190323115906 22 0 0.0 0.0 0.00 0.00 0.00 94 1026.5
20190323115806 22 0 0.0 0.0 0.00 0.00 0.00 94 1026.4
20190323115706 22 0 0.0 0.0 0.00 0.00 0.00 94 1026.4
20190323115606 22 0 0.0 0.0 0.00 0.00 0.00 94 1026.5
20190323115507 22 0 0.0 0.0 0.00 0.00 0.00 94 1026.5
20190323115406 22 0 0.0 0.0 0.00 0.00 0.00 94 1026.4
20190323115306 22 0 0.0 0.0 0.00 0.00 0.00 94 1026.4
20190323115206 22 0 0.0 0.0 0.00 0.00 0.00 94 1026.4
20190323115109 22 0 0.0 0.0 0.00 0.00 0.00 94 1026.3
20190323115007 22 0 0.0 0.0 0.00 0.00 0.00 94 1026.4
20190323114907 22 0 0.0 0.0 0.00 0.00 0.00 94 1026.4
20190323114806 22 0 0.0 0.0 0.00 0.00 0.00 94 1026.3
20190323114706 22 0 0.0 0.0 0.00 0.00 0.00 94 1026.3
20190323114606 22 0 0.0 0.0 0.00 0.00 0.00 94 1026.4
20190323114508 22 155 0.0 0.0 0.00 0.00 0.00 94 1028.2
20190323114406 22 0 0.0 0.0 0.00 0.00 0.00 94 1026.3
20190323114306 22 0 0.0 0.0 0.00 0.00 0.00 94 1026.3
20190323114206 22 0 0.0 0.0 0.00 0.00 0.00 94 1026.4
20190323114106 22 0 0.0 0.0 0.00 0.00 0.00 94 1026.3
20190323114006 22 0 0.0 0.0 0.00 0.00 0.00 94 1026.4
20190323113906 22 0 0.0 0.0 0.00 0.00 0.00 94 1026.4
20190323113806 22 0 0.0 0.0 0.00 0.00 0.00 94 1026.4
20190323113706 22 0 0.0 0.0 0.00 0.00 0.00 94 1026.4
20190323113609 22 0 0.0 0.0 0.00 0.00 0.00 94 1026.4
20190323113507 22 0 0.0 0.0 0.00 0.00 0.00 94 1026.3
20190323113406 22 0 0.0 0.0 0.00 0.00 0.00 94 1026.3
20190323113306 22 0 0.0 0.0 0.00 0.00 0.00 94 1026.3
20190323113206 22 0 0.0 0.0 0.00 0.00 0.00 94 1026.2
20190323113107 22 0 0.0 0.0 0.00 0.00 0.00 94 1026.2
20190323113006 22 0 0.0 0.0 0.00 0.00 0.00 94 1026.2
20190323112906 22 0 0.0 0.0 0.00 0.00 0.00 94 1026.2
20190323112806 22 0 0.0 0.0 0.00 0.00 0.00 94 1026.2
20190323112707 22 0 0.0 0.0 0.00 0.00 0.00 94 1026.3
20190323112607 22 0 0.0 0.0 0.00 0.00 0.00 94 1026.2
20190323112506 22 0 0.0 0.0 0.00 0.00 0.00 94 1026.2
20190323112406 22 0 0.0 0.0 0.00 0.00 0.00 94 1026.2
20190323112306 22 0 0.0 0.0 0.00 0.00 0.00 94 1026.2
20190323112206 22 0 0.0 0.0 0.00 0.00 0.00 94 1026.2
20190323112109 22 0 0.0 0.0 0.00 0.00 0.00 94 1026.2
20190323112008 22 0 0.0 0.0 0.00 0.00 0.00 94 1026.2
20190323111906 22 0 0.0 0.0 0.00 0.00 0.00 94 1026.2
20190323111806 22 0 0.0 0.0 0.00 0.00 0.00 94 1026.2
20190323111707 22 0 0.0 0.0 0.00 0.00 0.00 94 1026.2
20190323111607 22 0 0.0 0.0 0.00 0.00 0.00 94 1026.2